<?xml version='1.0' encoding='UTF-8'?>
<gpx version="1.1" creator="https://www.komoot.de" xmlns="http://www.topografix.com/GPX/1/1" xmlns:xsi="http://www.w3.org/2001/XMLSchema-instance" xsi:schemaLocation="http://www.topografix.com/GPX/1/1 http://www.topografix.com/GPX/1/1/gpx.xsd">
  <metadata>
    <name>GVA-MAR - Day 1</name>
    <author>
      <link href="https://www.komoot.de">
        <text>komoot</text>
        <type>text/html</type>
      </link>
    </author>
  </metadata>
  <trk>
    <name>GVA-MAR - Day 1</name>
    <trkseg>
      <trkpt lat="46.230982" lon="6.107283">
        <ele>425.591203</ele>
        <time>2017-05-29T18:59:29.385Z</time>
      </trkpt>
      <trkpt lat="46.231834" lon="6.108543">
        <ele>425.185546</ele>
        <time>2017-05-29T19:00:03.096Z</time>
      </trkpt>
      <trkpt lat="46.231917" lon="6.108600">
        <ele>425.068887</ele>
        <time>2017-05-29T19:00:05.577Z</time>
      </trkpt>
      <trkpt lat="46.231975" lon="6.108583">
        <ele>424.993755</ele>
        <time>2017-05-29T19:00:07.165Z</time>
      </trkpt>
      <trkpt lat="46.232258" lon="6.108218">
        <ele>424.512266</ele>
        <time>2017-05-29T19:00:16.821Z</time>
      </trkpt>
      <trkpt lat="46.232284" lon="6.108214">
        <ele>424.479071</ele>
        <time>2017-05-29T19:00:17.391Z</time>
      </trkpt>
      <trkpt lat="46.232217" lon="6.108075">
        <ele>424.330289</ele>
        <time>2017-05-29T19:00:20.222Z</time>
      </trkpt>
      <trkpt lat="46.232198" lon="6.107978">
        <ele>424.241754</ele>
        <time>2017-05-29T19:00:22.137Z</time>
      </trkpt>
      <trkpt lat="46.232221" lon="6.107889">
        <ele>424.158318</ele>
        <time>2017-05-29T19:00:23.869Z</time>
      </trkpt>
      <trkpt lat="46.232669" lon="6.107271">
        <ele>423.372166</ele>
        <time>2017-05-29T19:00:39.054Z</time>
      </trkpt>
      <trkpt lat="46.232814" lon="6.107062">
        <ele>423.145418</ele>
        <time>2017-05-29T19:00:44.091Z</time>
      </trkpt>
      <trkpt lat="46.232765" lon="6.107011">
        <ele>423.081782</ele>
        <time>2017-05-29T19:00:45.452Z</time>
      </trkpt>
      <trkpt lat="46.232710" lon="6.106860">
        <ele>422.957366</ele>
        <time>2017-05-29T19:00:48.501Z</time>
      </trkpt>
      <trkpt lat="46.232709" lon="6.106773">
        <ele>422.893930</ele>
        <time>2017-05-29T19:00:50.253Z</time>
      </trkpt>
      <trkpt lat="46.232725" lon="6.106690">
        <ele>422.831113</ele>
        <time>2017-05-29T19:00:51.769Z</time>
      </trkpt>
      <trkpt lat="46.232635" lon="6.106593">
        <ele>422.712797</ele>
        <time>2017-05-29T19:00:54.340Z</time>
      </trkpt>
      <trkpt lat="46.232543" lon="6.106301">
        <ele>422.478872</ele>
        <time>2017-05-29T19:01:00.421Z</time>
      </trkpt>
      <trkpt lat="46.232168" lon="6.105728">
        <ele>421.903788</ele>
        <time>2017-05-29T19:01:14.586Z</time>
      </trkpt>
      <trkpt lat="46.232035" lon="6.105374">
        <ele>421.610091</ele>
        <time>2017-05-29T19:01:22.126Z</time>
      </trkpt>
      <trkpt lat="46.231917" lon="6.105201">
        <ele>421.432960</ele>
        <time>2017-05-29T19:01:26.815Z</time>
      </trkpt>
      <trkpt lat="46.231880" lon="6.105285">
        <ele>421.409105</ele>
        <time>2017-05-29T19:01:28.954Z</time>
      </trkpt>
      <trkpt lat="46.231826" lon="6.105345">
        <ele>421.405016</ele>
        <time>2017-05-29T19:01:30.736Z</time>
      </trkpt>
      <trkpt lat="46.231693" lon="6.105375">
        <ele>421.396934</ele>
        <time>2017-05-29T19:01:34.306Z</time>
      </trkpt>
      <trkpt lat="46.231628" lon="6.105341">
        <ele>421.392784</ele>
        <time>2017-05-29T19:01:36.488Z</time>
      </trkpt>
      <trkpt lat="46.231574" lon="6.105275">
        <ele>421.388538</ele>
        <time>2017-05-29T19:01:38.655Z</time>
      </trkpt>
      <trkpt lat="46.231526" lon="6.105085">
        <ele>421.380138</ele>
        <time>2017-05-29T19:01:42.600Z</time>
      </trkpt>
      <trkpt lat="46.231539" lon="6.104983">
        <ele>421.375830</ele>
        <time>2017-05-29T19:01:44.557Z</time>
      </trkpt>
      <trkpt lat="46.231457" lon="6.104865">
        <ele>421.368884</ele>
        <time>2017-05-29T19:01:48.121Z</time>
      </trkpt>
      <trkpt lat="46.231265" lon="6.104405">
        <ele>421.346571</ele>
        <time>2017-05-29T19:01:58.998Z</time>
      </trkpt>
      <trkpt lat="46.230740" lon="6.103627">
        <ele>421.345767</ele>
        <time>2017-05-29T19:02:21.528Z</time>
      </trkpt>
      <trkpt lat="46.230764" lon="6.103589">
        <ele>421.379651</ele>
        <time>2017-05-29T19:02:22.474Z</time>
      </trkpt>
      <trkpt lat="46.230772" lon="6.103139">
        <ele>421.676077</ele>
        <time>2017-05-29T19:02:31.712Z</time>
      </trkpt>
      <trkpt lat="46.230740" lon="6.103066">
        <ele>421.732987</ele>
        <time>2017-05-29T19:02:33.278Z</time>
      </trkpt>
      <trkpt lat="46.230394" lon="6.103037">
        <ele>422.062910</ele>
        <time>2017-05-29T19:02:44.799Z</time>
      </trkpt>
      <trkpt lat="46.230376" lon="6.103050">
        <ele>422.082065</ele>
        <time>2017-05-29T19:02:45.261Z</time>
      </trkpt>
      <trkpt lat="46.230357" lon="6.103074">
        <ele>422.106083</ele>
        <time>2017-05-29T19:02:46.037Z</time>
      </trkpt>
      <trkpt lat="46.230259" lon="6.102923">
        <ele>422.242430</ele>
        <time>2017-05-29T19:02:50.753Z</time>
      </trkpt>
      <trkpt lat="46.229882" lon="6.102404">
        <ele>422.738011</ele>
        <time>2017-05-29T19:03:09.200Z</time>
      </trkpt>
      <trkpt lat="46.229770" lon="6.102430">
        <ele>422.845994</ele>
        <time>2017-05-29T19:03:13.046Z</time>
      </trkpt>
      <trkpt lat="46.229528" lon="6.102742">
        <ele>423.106818</ele>
        <time>2017-05-29T19:03:25.741Z</time>
      </trkpt>
      <trkpt lat="46.229370" lon="6.102695">
        <ele>423.207287</ele>
        <time>2017-05-29T19:03:31.065Z</time>
      </trkpt>
      <trkpt lat="46.229307" lon="6.102636">
        <ele>423.254040</ele>
        <time>2017-05-29T19:03:34.087Z</time>
      </trkpt>
      <trkpt lat="46.229307" lon="6.102664">
        <ele>423.266104</ele>
        <time>2017-05-29T19:03:35.315Z</time>
      </trkpt>
      <trkpt lat="46.229230" lon="6.102819">
        <ele>423.348322</ele>
        <time>2017-05-29T19:03:39.193Z</time>
      </trkpt>
      <trkpt lat="46.229164" lon="6.103072">
        <ele>423.464821</ele>
        <time>2017-05-29T19:03:45.335Z</time>
      </trkpt>
      <trkpt lat="46.229171" lon="6.103497">
        <ele>423.647987</ele>
        <time>2017-05-29T19:03:54.487Z</time>
      </trkpt>
      <trkpt lat="46.229146" lon="6.103571">
        <ele>423.683469</ele>
        <time>2017-05-29T19:03:56.351Z</time>
      </trkpt>
      <trkpt lat="46.229074" lon="6.103669">
        <ele>423.745063</ele>
        <time>2017-05-29T19:03:59.998Z</time>
      </trkpt>
      <trkpt lat="46.229019" lon="6.103746">
        <ele>423.792750</ele>
        <time>2017-05-29T19:04:02.037Z</time>
      </trkpt>
      <trkpt lat="46.228984" lon="6.103829">
        <ele>423.834632</ele>
        <time>2017-05-29T19:04:03.768Z</time>
      </trkpt>
      <trkpt lat="46.228969" lon="6.103936">
        <ele>423.881671</ele>
        <time>2017-05-29T19:04:05.846Z</time>
      </trkpt>
      <trkpt lat="46.228906" lon="6.103924">
        <ele>423.921248</ele>
        <time>2017-05-29T19:04:08.103Z</time>
      </trkpt>
      <trkpt lat="46.228769" lon="6.103902">
        <ele>424.007100</ele>
        <time>2017-05-29T19:04:11.445Z</time>
      </trkpt>
      <trkpt lat="46.228740" lon="6.103878">
        <ele>424.027913</ele>
        <time>2017-05-29T19:04:12.248Z</time>
      </trkpt>
      <trkpt lat="46.228656" lon="6.103832">
        <ele>424.083858</ele>
        <time>2017-05-29T19:04:14.663Z</time>
      </trkpt>
      <trkpt lat="46.228617" lon="6.103847">
        <ele>424.108994</ele>
        <time>2017-05-29T19:04:15.702Z</time>
      </trkpt>
      <trkpt lat="46.228562" lon="6.103746">
        <ele>424.075712</ele>
        <time>2017-05-29T19:04:18.687Z</time>
      </trkpt>
      <trkpt lat="46.228509" lon="6.103664">
        <ele>423.970287</ele>
        <time>2017-05-29T19:04:20.118Z</time>
      </trkpt>
      <trkpt lat="46.228073" lon="6.103022">
        <ele>423.125111</ele>
        <time>2017-05-29T19:04:32.465Z</time>
      </trkpt>
      <trkpt lat="46.227990" lon="6.102921">
        <ele>422.977777</ele>
        <time>2017-05-29T19:04:34.512Z</time>
      </trkpt>
      <trkpt lat="46.227261" lon="6.101868">
        <ele>421.644796</ele>
        <time>2017-05-29T19:04:53.483Z</time>
      </trkpt>
      <trkpt lat="46.226934" lon="6.101381">
        <ele>421.373924</ele>
        <time>2017-05-29T19:05:03.050Z</time>
      </trkpt>
      <trkpt lat="46.226805" lon="6.101250">
        <ele>421.282970</ele>
        <time>2017-05-29T19:05:06.480Z</time>
      </trkpt>
      <trkpt lat="46.226719" lon="6.101215">
        <ele>421.231425</ele>
        <time>2017-05-29T19:05:08.385Z</time>
      </trkpt>
      <trkpt lat="46.225973" lon="6.101214">
        <ele>420.801035</ele>
        <time>2017-05-29T19:05:25.425Z</time>
      </trkpt>
      <trkpt lat="46.225776" lon="6.101108">
        <ele>420.679761</ele>
        <time>2017-05-29T19:05:30.580Z</time>
      </trkpt>
      <trkpt lat="46.224293" lon="6.099428">
        <ele>419.878213</ele>
        <time>2017-05-29T19:06:11.979Z</time>
      </trkpt>
      <trkpt lat="46.224233" lon="6.099361">
        <ele>419.806043</ele>
        <time>2017-05-29T19:06:13.429Z</time>
      </trkpt>
      <trkpt lat="46.224165" lon="6.099282">
        <ele>419.723000</ele>
        <time>2017-05-29T19:06:15.113Z</time>
      </trkpt>
      <trkpt lat="46.224066" lon="6.099167">
        <ele>419.602106</ele>
        <time>2017-05-29T19:06:17.611Z</time>
      </trkpt>
      <trkpt lat="46.223360" lon="6.098380">
        <ele>418.753454</ele>
        <time>2017-05-29T19:06:34.957Z</time>
      </trkpt>
      <trkpt lat="46.223072" lon="6.098043">
        <ele>418.400745</ele>
        <time>2017-05-29T19:06:42.526Z</time>
      </trkpt>
      <trkpt lat="46.222746" lon="6.097682">
        <ele>418.326265</ele>
        <time>2017-05-29T19:06:51.457Z</time>
      </trkpt>
      <trkpt lat="46.222659" lon="6.097691">
        <ele>418.375282</ele>
        <time>2017-05-29T19:06:53.295Z</time>
      </trkpt>
      <trkpt lat="46.222459" lon="6.097500">
        <ele>418.509997</ele>
        <time>2017-05-29T19:06:58.725Z</time>
      </trkpt>
      <trkpt lat="46.222284" lon="6.097382">
        <ele>418.618519</ele>
        <time>2017-05-29T19:07:03.370Z</time>
      </trkpt>
      <trkpt lat="46.222253" lon="6.097358">
        <ele>418.638282</ele>
        <time>2017-05-29T19:07:04.321Z</time>
      </trkpt>
      <trkpt lat="46.222143" lon="6.097354">
        <ele>418.700119</ele>
        <time>2017-05-29T19:07:07.155Z</time>
      </trkpt>
      <trkpt lat="46.222002" lon="6.097268">
        <ele>418.786125</ele>
        <time>2017-05-29T19:07:11.324Z</time>
      </trkpt>
      <trkpt lat="46.221857" lon="6.097190">
        <ele>418.873073</ele>
        <time>2017-05-29T19:07:15.212Z</time>
      </trkpt>
      <trkpt lat="46.221770" lon="6.097069">
        <ele>418.940925</ele>
        <time>2017-05-29T19:07:18.673Z</time>
      </trkpt>
      <trkpt lat="46.221479" lon="6.096915">
        <ele>419.115079</ele>
        <time>2017-05-29T19:07:27.018Z</time>
      </trkpt>
      <trkpt lat="46.221187" lon="6.096751">
        <ele>419.193020</ele>
        <time>2017-05-29T19:07:35.469Z</time>
      </trkpt>
      <trkpt lat="46.221048" lon="6.096681">
        <ele>419.162279</ele>
        <time>2017-05-29T19:07:39.718Z</time>
      </trkpt>
      <trkpt lat="46.220884" lon="6.096598">
        <ele>419.125990</ele>
        <time>2017-05-29T19:07:44.079Z</time>
      </trkpt>
      <trkpt lat="46.220845" lon="6.096580">
        <ele>419.117440</ele>
        <time>2017-05-29T19:07:45.051Z</time>
      </trkpt>
      <trkpt lat="46.220751" lon="6.096595">
        <ele>419.097690</ele>
        <time>2017-05-29T19:07:47.348Z</time>
      </trkpt>
      <trkpt lat="46.220638" lon="6.096469">
        <ele>419.067884</ele>
        <time>2017-05-29T19:07:51.009Z</time>
      </trkpt>
      <trkpt lat="46.220512" lon="6.096412">
        <ele>419.040311</ele>
        <time>2017-05-29T19:07:53.899Z</time>
      </trkpt>
      <trkpt lat="46.219526" lon="6.095884">
        <ele>418.530813</ele>
        <time>2017-05-29T19:08:14.668Z</time>
      </trkpt>
      <trkpt lat="46.219407" lon="6.095881">
        <ele>418.196112</ele>
        <time>2017-05-29T19:08:16.640Z</time>
      </trkpt>
      <trkpt lat="46.219017" lon="6.095686">
        <ele>417.035582</ele>
        <time>2017-05-29T19:08:23.547Z</time>
      </trkpt>
      <trkpt lat="46.218806" lon="6.095592">
        <ele>416.414661</ele>
        <time>2017-05-29T19:08:27.145Z</time>
      </trkpt>
      <trkpt lat="46.218784" lon="6.095581">
        <ele>416.349195</ele>
        <time>2017-05-29T19:08:27.512Z</time>
      </trkpt>
      <trkpt lat="46.218724" lon="6.095551">
        <ele>416.170652</ele>
        <time>2017-05-29T19:08:28.538Z</time>
      </trkpt>
      <trkpt lat="46.218649" lon="6.095504">
        <ele>415.940765</ele>
        <time>2017-05-29T19:08:29.978Z</time>
      </trkpt>
      <trkpt lat="46.218567" lon="6.095749">
        <ele>415.411205</ele>
        <time>2017-05-29T19:08:32.845Z</time>
      </trkpt>
      <trkpt lat="46.218483" lon="6.095982">
        <ele>414.899988</ele>
        <time>2017-05-29T19:08:35.827Z</time>
      </trkpt>
      <trkpt lat="46.218377" lon="6.096268">
        <ele>414.268684</ele>
        <time>2017-05-29T19:08:39.221Z</time>
      </trkpt>
      <trkpt lat="46.217873" lon="6.097319">
        <ele>412.301007</ele>
        <time>2017-05-29T19:08:54.591Z</time>
      </trkpt>
      <trkpt lat="46.217746" lon="6.097553">
        <ele>411.872528</ele>
        <time>2017-05-29T19:08:57.950Z</time>
      </trkpt>
      <trkpt lat="46.217725" lon="6.097584">
        <ele>411.810022</ele>
        <time>2017-05-29T19:08:58.859Z</time>
      </trkpt>
      <trkpt lat="46.217554" lon="6.097857">
        <ele>411.279464</ele>
        <time>2017-05-29T19:09:03.253Z</time>
      </trkpt>
      <trkpt lat="46.217348" lon="6.098081">
        <ele>410.742666</ele>
        <time>2017-05-29T19:09:08.150Z</time>
      </trkpt>
      <trkpt lat="46.217190" lon="6.098278">
        <ele>410.308154</ele>
        <time>2017-05-29T19:09:11.920Z</time>
      </trkpt>
      <trkpt lat="46.216971" lon="6.098546">
        <ele>410.033723</ele>
        <time>2017-05-29T19:09:17.022Z</time>
      </trkpt>
      <trkpt lat="46.216835" lon="6.098684">
        <ele>410.026522</ele>
        <time>2017-05-29T19:09:21.183Z</time>
      </trkpt>
      <trkpt lat="46.216827" lon="6.098692">
        <ele>410.026100</ele>
        <time>2017-05-29T19:09:21.396Z</time>
      </trkpt>
      <trkpt lat="46.216735" lon="6.098783">
        <ele>410.021269</ele>
        <time>2017-05-29T19:09:23.452Z</time>
      </trkpt>
      <trkpt lat="46.216677" lon="6.098838">
        <ele>410.018263</ele>
        <time>2017-05-29T19:09:24.591Z</time>
      </trkpt>
      <trkpt lat="46.216636" lon="6.098878">
        <ele>410.016120</ele>
        <time>2017-05-29T19:09:25.691Z</time>
      </trkpt>
      <trkpt lat="46.216549" lon="6.098835">
        <ele>410.012135</ele>
        <time>2017-05-29T19:09:28.396Z</time>
      </trkpt>
      <trkpt lat="46.216381" lon="6.098835">
        <ele>410.004855</ele>
        <time>2017-05-29T19:09:32.645Z</time>
      </trkpt>
      <trkpt lat="46.216370" lon="6.098921">
        <ele>410.002233</ele>
        <time>2017-05-29T19:09:33.795Z</time>
      </trkpt>
      <trkpt lat="46.216334" lon="6.099021">
        <ele>409.998853</ele>
        <time>2017-05-29T19:09:36.246Z</time>
      </trkpt>
      <trkpt lat="46.216090" lon="6.099302">
        <ele>409.985334</ele>
        <time>2017-05-29T19:09:43.969Z</time>
      </trkpt>
      <trkpt lat="46.215831" lon="6.099603">
        <ele>409.970932</ele>
        <time>2017-05-29T19:09:51.997Z</time>
      </trkpt>
      <trkpt lat="46.215600" lon="6.099936">
        <ele>410.162847</ele>
        <time>2017-05-29T19:10:00.266Z</time>
      </trkpt>
      <trkpt lat="46.214907" lon="6.101057">
        <ele>411.703878</ele>
        <time>2017-05-29T19:10:28.183Z</time>
      </trkpt>
      <trkpt lat="46.214882" lon="6.101142">
        <ele>411.798562</ele>
        <time>2017-05-29T19:10:30.446Z</time>
      </trkpt>
      <trkpt lat="46.214847" lon="6.101193">
        <ele>411.872199</ele>
        <time>2017-05-29T19:10:32.032Z</time>
      </trkpt>
      <trkpt lat="46.214369" lon="6.101875">
        <ele>413.123295</ele>
        <time>2017-05-29T19:10:54.745Z</time>
      </trkpt>
      <trkpt lat="46.213953" lon="6.102468">
        <ele>414.912373</ele>
        <time>2017-05-29T19:11:15.190Z</time>
      </trkpt>
      <trkpt lat="46.213684" lon="6.102836">
        <ele>416.046503</ele>
        <time>2017-05-29T19:11:28.592Z</time>
      </trkpt>
      <trkpt lat="46.213367" lon="6.103268">
        <ele>417.380585</ele>
        <time>2017-05-29T19:11:44.293Z</time>
      </trkpt>
      <trkpt lat="46.213253" lon="6.103433">
        <ele>417.874592</ele>
        <time>2017-05-29T19:11:50.305Z</time>
      </trkpt>
      <trkpt lat="46.213143" lon="6.103658">
        <ele>418.415622</ele>
        <time>2017-05-29T19:11:57.116Z</time>
      </trkpt>
      <trkpt lat="46.213098" lon="6.103730">
        <ele>418.594101</ele>
        <time>2017-05-29T19:11:59.994Z</time>
      </trkpt>
      <trkpt lat="46.212967" lon="6.103940">
        <ele>419.114220</ele>
        <time>2017-05-29T19:12:06.881Z</time>
      </trkpt>
      <trkpt lat="46.212872" lon="6.104067">
        <ele>419.458265</ele>
        <time>2017-05-29T19:12:11.688Z</time>
      </trkpt>
      <trkpt lat="46.212762" lon="6.104213">
        <ele>419.855319</ele>
        <time>2017-05-29T19:12:17.045Z</time>
      </trkpt>
      <trkpt lat="46.212820" lon="6.104291">
        <ele>420.065947</ele>
        <time>2017-05-29T19:12:20.086Z</time>
      </trkpt>
      <trkpt lat="46.212764" lon="6.104373">
        <ele>420.277887</ele>
        <time>2017-05-29T19:12:22.689Z</time>
      </trkpt>
      <trkpt lat="46.212473" lon="6.104808">
        <ele>421.390923</ele>
        <time>2017-05-29T19:12:36.543Z</time>
      </trkpt>
      <trkpt lat="46.212330" lon="6.105097">
        <ele>422.044508</ele>
        <time>2017-05-29T19:12:44.116Z</time>
      </trkpt>
      <trkpt lat="46.212251" lon="6.105286">
        <ele>422.450705</ele>
        <time>2017-05-29T19:12:49.106Z</time>
      </trkpt>
      <trkpt lat="46.212094" lon="6.105465">
        <ele>422.947995</ele>
        <time>2017-05-29T19:12:54.795Z</time>
      </trkpt>
      <trkpt lat="46.212039" lon="6.105667">
        <ele>423.140163</ele>
        <time>2017-05-29T19:12:59.687Z</time>
      </trkpt>
      <trkpt lat="46.211544" lon="6.107333">
        <ele>424.745219</ele>
        <time>2017-05-29T19:13:36.838Z</time>
      </trkpt>
      <trkpt lat="46.211504" lon="6.107475">
        <ele>424.880943</ele>
        <time>2017-05-29T19:13:39.222Z</time>
      </trkpt>
      <trkpt lat="46.211416" lon="6.107801">
        <ele>425.190722</ele>
        <time>2017-05-29T19:13:44.774Z</time>
      </trkpt>
      <trkpt lat="46.211355" lon="6.108066">
        <ele>425.224363</ele>
        <time>2017-05-29T19:13:49.323Z</time>
      </trkpt>
      <trkpt lat="46.211257" lon="6.108600">
        <ele>425.240373</ele>
        <time>2017-05-29T19:13:58.218Z</time>
      </trkpt>
      <trkpt lat="46.211167" lon="6.108732">
        <ele>425.245743</ele>
        <time>2017-05-29T19:14:01.083Z</time>
      </trkpt>
      <trkpt lat="46.211139" lon="6.108743">
        <ele>425.246958</ele>
        <time>2017-05-29T19:14:02.073Z</time>
      </trkpt>
      <trkpt lat="46.210964" lon="6.108810">
        <ele>425.254540</ele>
        <time>2017-05-29T19:14:06.142Z</time>
      </trkpt>
      <trkpt lat="46.210915" lon="6.108825">
        <ele>425.256637</ele>
        <time>2017-05-29T19:14:07.249Z</time>
      </trkpt>
      <trkpt lat="46.210458" lon="6.108968">
        <ele>425.276219</ele>
        <time>2017-05-29T19:14:18.299Z</time>
      </trkpt>
      <trkpt lat="46.209421" lon="6.109258">
        <ele>425.363960</ele>
        <time>2017-05-29T19:14:41.905Z</time>
      </trkpt>
      <trkpt lat="46.208354" lon="6.109464">
        <ele>425.479103</ele>
        <time>2017-05-29T19:15:08.257Z</time>
      </trkpt>
      <trkpt lat="46.207809" lon="6.109565">
        <ele>425.025633</ele>
        <time>2017-05-29T19:15:21.493Z</time>
      </trkpt>
      <trkpt lat="46.207563" lon="6.109614">
        <ele>424.795623</ele>
        <time>2017-05-29T19:15:26.962Z</time>
      </trkpt>
      <trkpt lat="46.207218" lon="6.109682">
        <ele>424.473111</ele>
        <time>2017-05-29T19:15:34.413Z</time>
      </trkpt>
      <trkpt lat="46.206422" lon="6.109828">
        <ele>423.124400</ele>
        <time>2017-05-29T19:15:49.625Z</time>
      </trkpt>
      <trkpt lat="46.206264" lon="6.109834">
        <ele>421.981574</ele>
        <time>2017-05-29T19:15:52.374Z</time>
      </trkpt>
      <trkpt lat="46.206140" lon="6.109819">
        <ele>421.081846</ele>
        <time>2017-05-29T19:15:54.677Z</time>
      </trkpt>
      <trkpt lat="46.205799" lon="6.109886">
        <ele>418.593529</ele>
        <time>2017-05-29T19:16:00.097Z</time>
      </trkpt>
      <trkpt lat="46.205762" lon="6.109893">
        <ele>418.323714</ele>
        <time>2017-05-29T19:16:00.630Z</time>
      </trkpt>
      <trkpt lat="46.205470" lon="6.109935">
        <ele>416.201950</ele>
        <time>2017-05-29T19:16:04.901Z</time>
      </trkpt>
      <trkpt lat="46.205424" lon="6.109952">
        <ele>415.858637</ele>
        <time>2017-05-29T19:16:05.559Z</time>
      </trkpt>
      <trkpt lat="46.205324" lon="6.109972">
        <ele>415.128685</ele>
        <time>2017-05-29T19:16:06.931Z</time>
      </trkpt>
      <trkpt lat="46.205073" lon="6.110015">
        <ele>413.301099</ele>
        <time>2017-05-29T19:16:10.542Z</time>
      </trkpt>
      <trkpt lat="46.205033" lon="6.109976">
        <ele>412.952189</ele>
        <time>2017-05-29T19:16:11.207Z</time>
      </trkpt>
      <trkpt lat="46.204979" lon="6.109977">
        <ele>412.561706</ele>
        <time>2017-05-29T19:16:11.931Z</time>
      </trkpt>
      <trkpt lat="46.204880" lon="6.110056">
        <ele>411.743970</ele>
        <time>2017-05-29T19:16:13.585Z</time>
      </trkpt>
      <trkpt lat="46.204468" lon="6.110162">
        <ele>409.594151</ele>
        <time>2017-05-29T19:16:19.611Z</time>
      </trkpt>
      <trkpt lat="46.204404" lon="6.110170">
        <ele>409.323844</ele>
        <time>2017-05-29T19:16:20.525Z</time>
      </trkpt>
      <trkpt lat="46.203765" lon="6.110280">
        <ele>406.616025</ele>
        <time>2017-05-29T19:16:30.037Z</time>
      </trkpt>
      <trkpt lat="46.201207" lon="6.110734">
        <ele>406.158698</ele>
        <time>2017-05-29T19:17:44.003Z</time>
      </trkpt>
      <trkpt lat="46.200644" lon="6.110834">
        <ele>407.255304</ele>
        <time>2017-05-29T19:18:05.688Z</time>
      </trkpt>
      <trkpt lat="46.197510" lon="6.111396">
        <ele>412.548638</ele>
        <time>2017-05-29T19:19:37.739Z</time>
      </trkpt>
      <trkpt lat="46.197035" lon="6.111563">
        <ele>413.339694</ele>
        <time>2017-05-29T19:19:51.924Z</time>
      </trkpt>
      <trkpt lat="46.196900" lon="6.111630">
        <ele>413.570675</ele>
        <time>2017-05-29T19:19:55.780Z</time>
      </trkpt>
      <trkpt lat="46.196688" lon="6.111764">
        <ele>413.945119</ele>
        <time>2017-05-29T19:20:03.271Z</time>
      </trkpt>
      <trkpt lat="46.196646" lon="6.111790">
        <ele>414.019058</ele>
        <time>2017-05-29T19:20:04.570Z</time>
      </trkpt>
      <trkpt lat="46.196599" lon="6.111821">
        <ele>414.102663</ele>
        <time>2017-05-29T19:20:05.896Z</time>
      </trkpt>
      <trkpt lat="46.196592" lon="6.111828">
        <ele>414.116439</ele>
        <time>2017-05-29T19:20:06.121Z</time>
      </trkpt>
      <trkpt lat="46.196503" lon="6.111891">
        <ele>414.276812</ele>
        <time>2017-05-29T19:20:08.837Z</time>
      </trkpt>
      <trkpt lat="46.196320" lon="6.111996">
        <ele>414.595434</ele>
        <time>2017-05-29T19:20:15.305Z</time>
      </trkpt>
      <trkpt lat="46.195844" lon="6.112159">
        <ele>415.384778</ele>
        <time>2017-05-29T19:20:29.555Z</time>
      </trkpt>
      <trkpt lat="46.195469" lon="6.112201">
        <ele>415.979593</ele>
        <time>2017-05-29T19:20:40.727Z</time>
      </trkpt>
      <trkpt lat="46.195364" lon="6.112237">
        <ele>416.150255</ele>
        <time>2017-05-29T19:20:44.620Z</time>
      </trkpt>
      <trkpt lat="46.195308" lon="6.112233">
        <ele>416.238923</ele>
        <time>2017-05-29T19:20:46.201Z</time>
      </trkpt>
      <trkpt lat="46.195195" lon="6.112235">
        <ele>416.417637</ele>
        <time>2017-05-29T19:20:49.358Z</time>
      </trkpt>
      <trkpt lat="46.194949" lon="6.112220">
        <ele>416.807014</ele>
        <time>2017-05-29T19:20:57.051Z</time>
      </trkpt>
      <trkpt lat="46.194745" lon="6.112204">
        <ele>417.130100</ele>
        <time>2017-05-29T19:21:04.221Z</time>
      </trkpt>
      <trkpt lat="46.192571" lon="6.112080">
        <ele>419.756481</ele>
        <time>2017-05-29T19:22:17.973Z</time>
      </trkpt>
      <trkpt lat="46.192369" lon="6.112036">
        <ele>419.971634</ele>
        <time>2017-05-29T19:22:23.288Z</time>
      </trkpt>
      <trkpt lat="46.191740" lon="6.112009">
        <ele>420.195873</ele>
        <time>2017-05-29T19:22:39.360Z</time>
      </trkpt>
      <trkpt lat="46.191590" lon="6.112004">
        <ele>420.239779</ele>
        <time>2017-05-29T19:22:43.190Z</time>
      </trkpt>
      <trkpt lat="46.191079" lon="6.112022">
        <ele>420.389356</ele>
        <time>2017-05-29T19:22:55.563Z</time>
      </trkpt>
      <trkpt lat="46.190440" lon="6.112141">
        <ele>420.540033</ele>
        <time>2017-05-29T19:23:10.258Z</time>
      </trkpt>
      <trkpt lat="46.190240" lon="6.112221">
        <ele>420.506553</ele>
        <time>2017-05-29T19:23:14.820Z</time>
      </trkpt>
      <trkpt lat="46.190145" lon="6.112300">
        <ele>420.488868</ele>
        <time>2017-05-29T19:23:17.265Z</time>
      </trkpt>
      <trkpt lat="46.190091" lon="6.112335">
        <ele>420.479319</ele>
        <time>2017-05-29T19:23:18.522Z</time>
      </trkpt>
      <trkpt lat="46.190070" lon="6.112342">
        <ele>420.475842</ele>
        <time>2017-05-29T19:23:18.963Z</time>
      </trkpt>
      <trkpt lat="46.189832" lon="6.112448">
        <ele>420.435661</ele>
        <time>2017-05-29T19:23:24.310Z</time>
      </trkpt>
      <trkpt lat="46.189662" lon="6.112535">
        <ele>420.406564</ele>
        <time>2017-05-29T19:23:28.111Z</time>
      </trkpt>
      <trkpt lat="46.189172" lon="6.112866">
        <ele>420.319295</ele>
        <time>2017-05-29T19:23:40.750Z</time>
      </trkpt>
      <trkpt lat="46.188805" lon="6.113275">
        <ele>420.242106</ele>
        <time>2017-05-29T19:23:51.570Z</time>
      </trkpt>
      <trkpt lat="46.188739" lon="6.113428">
        <ele>420.219395</ele>
        <time>2017-05-29T19:23:54.295Z</time>
      </trkpt>
      <trkpt lat="46.188696" lon="6.113471">
        <ele>420.209877</ele>
        <time>2017-05-29T19:23:55.683Z</time>
      </trkpt>
      <trkpt lat="46.188630" lon="6.113526">
        <ele>420.196011</ele>
        <time>2017-05-29T19:23:57.386Z</time>
      </trkpt>
      <trkpt lat="46.188513" lon="6.113593">
        <ele>420.173106</ele>
        <time>2017-05-29T19:24:00.130Z</time>
      </trkpt>
      <trkpt lat="46.188398" lon="6.113629">
        <ele>420.151692</ele>
        <time>2017-05-29T19:24:02.689Z</time>
      </trkpt>
      <trkpt lat="46.188320" lon="6.113651">
        <ele>420.137229</ele>
        <time>2017-05-29T19:24:04.637Z</time>
      </trkpt>
      <trkpt lat="46.188294" lon="6.113666">
        <ele>420.132134</ele>
        <time>2017-05-29T19:24:05.255Z</time>
      </trkpt>
      <trkpt lat="46.188263" lon="6.113693">
        <ele>420.125546</ele>
        <time>2017-05-29T19:24:06.158Z</time>
      </trkpt>
      <trkpt lat="46.188239" lon="6.113745">
        <ele>420.117673</ele>
        <time>2017-05-29T19:24:07.217Z</time>
      </trkpt>
      <trkpt lat="46.188224" lon="6.113815">
        <ele>420.108441</ele>
        <time>2017-05-29T19:24:08.403Z</time>
      </trkpt>
      <trkpt lat="46.188197" lon="6.114005">
        <ele>420.084004</ele>
        <time>2017-05-29T19:24:11.450Z</time>
      </trkpt>
      <trkpt lat="46.188077" lon="6.114292">
        <ele>420.041763</ele>
        <time>2017-05-29T19:24:16.792Z</time>
      </trkpt>
      <trkpt lat="46.187605" lon="6.114844">
        <ele>419.842780</ele>
        <time>2017-05-29T19:24:29.476Z</time>
      </trkpt>
      <trkpt lat="46.187234" lon="6.115332">
        <ele>418.047316</ele>
        <time>2017-05-29T19:24:38.951Z</time>
      </trkpt>
      <trkpt lat="46.187010" lon="6.115674">
        <ele>416.881040</ele>
        <time>2017-05-29T19:24:44.435Z</time>
      </trkpt>
      <trkpt lat="46.186869" lon="6.115866">
        <ele>416.187663</ele>
        <time>2017-05-29T19:24:47.517Z</time>
      </trkpt>
      <trkpt lat="46.186438" lon="6.116387">
        <ele>414.176649</ele>
        <time>2017-05-29T19:24:55.956Z</time>
      </trkpt>
      <trkpt lat="46.186343" lon="6.116510">
        <ele>413.720145</ele>
        <time>2017-05-29T19:24:57.782Z</time>
      </trkpt>
      <trkpt lat="46.186201" lon="6.116683">
        <ele>412.771692</ele>
        <time>2017-05-29T19:25:00.469Z</time>
      </trkpt>
      <trkpt lat="46.186134" lon="6.116765">
        <ele>412.256929</ele>
        <time>2017-05-29T19:25:01.715Z</time>
      </trkpt>
      <trkpt lat="46.185818" lon="6.117150">
        <ele>409.833661</ele>
        <time>2017-05-29T19:25:07.656Z</time>
      </trkpt>
      <trkpt lat="46.185643" lon="6.117378">
        <ele>408.452204</ele>
        <time>2017-05-29T19:25:11.056Z</time>
      </trkpt>
      <trkpt lat="46.185536" lon="6.117532">
        <ele>407.566778</ele>
        <time>2017-05-29T19:25:13.239Z</time>
      </trkpt>
      <trkpt lat="46.185231" lon="6.118081">
        <ele>404.710155</ele>
        <time>2017-05-29T19:25:20.477Z</time>
      </trkpt>
      <trkpt lat="46.185188" lon="6.118166">
        <ele>404.282925</ele>
        <time>2017-05-29T19:25:21.478Z</time>
      </trkpt>
      <trkpt lat="46.184499" lon="6.119650">
        <ele>400.504662</ele>
        <time>2017-05-29T19:25:41.252Z</time>
      </trkpt>
      <trkpt lat="46.184407" lon="6.119830">
        <ele>400.128891</ele>
        <time>2017-05-29T19:25:44.181Z</time>
      </trkpt>
      <trkpt lat="46.184362" lon="6.119901">
        <ele>399.967222</ele>
        <time>2017-05-29T19:25:45.228Z</time>
      </trkpt>
      <trkpt lat="46.184295" lon="6.119987">
        <ele>399.749783</ele>
        <time>2017-05-29T19:25:47.328Z</time>
      </trkpt>
      <trkpt lat="46.184033" lon="6.120170">
        <ele>399.043788</ele>
        <time>2017-05-29T19:25:53.844Z</time>
      </trkpt>
      <trkpt lat="46.183679" lon="6.120240">
        <ele>398.534320</ele>
        <time>2017-05-29T19:26:01.881Z</time>
      </trkpt>
      <trkpt lat="46.183336" lon="6.120278">
        <ele>398.415697</ele>
        <time>2017-05-29T19:26:09.476Z</time>
      </trkpt>
      <trkpt lat="46.183308" lon="6.120293">
        <ele>398.405399</ele>
        <time>2017-05-29T19:26:10.195Z</time>
      </trkpt>
      <trkpt lat="46.183180" lon="6.120348">
        <ele>398.359349</ele>
        <time>2017-05-29T19:26:13.041Z</time>
      </trkpt>
      <trkpt lat="46.183156" lon="6.120357">
        <ele>398.350799</ele>
        <time>2017-05-29T19:26:13.600Z</time>
      </trkpt>
      <trkpt lat="46.182961" lon="6.120445">
        <ele>398.280351</ele>
        <time>2017-05-29T19:26:17.951Z</time>
      </trkpt>
      <trkpt lat="46.182736" lon="6.120520">
        <ele>398.200726</ele>
        <time>2017-05-29T19:26:22.788Z</time>
      </trkpt>
      <trkpt lat="46.182555" lon="6.120581">
        <ele>398.136635</ele>
        <time>2017-05-29T19:26:26.689Z</time>
      </trkpt>
      <trkpt lat="46.182380" lon="6.120660">
        <ele>398.073411</ele>
        <time>2017-05-29T19:26:30.415Z</time>
      </trkpt>
      <trkpt lat="46.182229" lon="6.120726">
        <ele>398.019010</ele>
        <time>2017-05-29T19:26:33.623Z</time>
      </trkpt>
      <trkpt lat="46.181906" lon="6.120875">
        <ele>397.828623</ele>
        <time>2017-05-29T19:26:40.452Z</time>
      </trkpt>
      <trkpt lat="46.181794" lon="6.120916">
        <ele>397.747681</ele>
        <time>2017-05-29T19:26:42.663Z</time>
      </trkpt>
      <trkpt lat="46.181696" lon="6.120952">
        <ele>397.676841</ele>
        <time>2017-05-29T19:26:44.648Z</time>
      </trkpt>
      <trkpt lat="46.181652" lon="6.120895">
        <ele>397.635435</ele>
        <time>2017-05-29T19:26:45.890Z</time>
      </trkpt>
      <trkpt lat="46.181556" lon="6.120812">
        <ele>397.557053</ele>
        <time>2017-05-29T19:26:48.203Z</time>
      </trkpt>
      <trkpt lat="46.181526" lon="6.120795">
        <ele>397.534477</ele>
        <time>2017-05-29T19:26:48.864Z</time>
      </trkpt>
      <trkpt lat="46.181276" lon="6.120872">
        <ele>397.355401</ele>
        <time>2017-05-29T19:26:54.008Z</time>
      </trkpt>
      <trkpt lat="46.180956" lon="6.120967">
        <ele>397.126538</ele>
        <time>2017-05-29T19:27:00.659Z</time>
      </trkpt>
      <trkpt lat="46.180741" lon="6.121032">
        <ele>396.972656</ele>
        <time>2017-05-29T19:27:05.098Z</time>
      </trkpt>
      <trkpt lat="46.180489" lon="6.121111">
        <ele>396.792006</ele>
        <time>2017-05-29T19:27:10.720Z</time>
      </trkpt>
      <trkpt lat="46.180365" lon="6.121144">
        <ele>396.718140</ele>
        <time>2017-05-29T19:27:13.276Z</time>
      </trkpt>
      <trkpt lat="46.179627" lon="6.121363">
        <ele>396.986630</ele>
        <time>2017-05-29T19:27:30.873Z</time>
      </trkpt>
      <trkpt lat="46.179596" lon="6.121362">
        <ele>396.997680</ele>
        <time>2017-05-29T19:27:31.557Z</time>
      </trkpt>
      <trkpt lat="46.179532" lon="6.121355">
        <ele>397.020553</ele>
        <time>2017-05-29T19:27:33.523Z</time>
      </trkpt>
      <trkpt lat="46.178915" lon="6.121574">
        <ele>397.246972</ele>
        <time>2017-05-29T19:27:49.130Z</time>
      </trkpt>
      <trkpt lat="46.178101" lon="6.121764">
        <ele>397.900486</ele>
        <time>2017-05-29T19:28:12.289Z</time>
      </trkpt>
      <trkpt lat="46.177527" lon="6.121907">
        <ele>398.508195</ele>
        <time>2017-05-29T19:28:28.481Z</time>
      </trkpt>
      <trkpt lat="46.177483" lon="6.121916">
        <ele>398.554560</ele>
        <time>2017-05-29T19:28:29.687Z</time>
      </trkpt>
      <trkpt lat="46.177462" lon="6.121921">
        <ele>398.576765</ele>
        <time>2017-05-29T19:28:30.217Z</time>
      </trkpt>
      <trkpt lat="46.177460" lon="6.121953">
        <ele>398.599976</ele>
        <time>2017-05-29T19:28:30.809Z</time>
      </trkpt>
      <trkpt lat="46.177460" lon="6.121979">
        <ele>398.618759</ele>
        <time>2017-05-29T19:28:31.689Z</time>
      </trkpt>
      <trkpt lat="46.177422" lon="6.122098">
        <ele>398.713429</ele>
        <time>2017-05-29T19:28:34.104Z</time>
      </trkpt>
      <trkpt lat="46.176240" lon="6.122438">
        <ele>399.557457</ele>
        <time>2017-05-29T19:29:05.893Z</time>
      </trkpt>
      <trkpt lat="46.176240" lon="6.122465">
        <ele>399.566066</ele>
        <time>2017-05-29T19:29:06.714Z</time>
      </trkpt>
      <trkpt lat="46.176204" lon="6.122478">
        <ele>399.583156</ele>
        <time>2017-05-29T19:29:07.430Z</time>
      </trkpt>
      <trkpt lat="46.176157" lon="6.122481">
        <ele>399.604821</ele>
        <time>2017-05-29T19:29:08.372Z</time>
      </trkpt>
      <trkpt lat="46.176081" lon="6.122485">
        <ele>399.639845</ele>
        <time>2017-05-29T19:29:10.446Z</time>
      </trkpt>
      <trkpt lat="46.176023" lon="6.122492">
        <ele>399.666648</ele>
        <time>2017-05-29T19:29:11.825Z</time>
      </trkpt>
      <trkpt lat="46.176014" lon="6.122471">
        <ele>399.674524</ele>
        <time>2017-05-29T19:29:12.166Z</time>
      </trkpt>
      <trkpt lat="46.176013" lon="6.122469">
        <ele>399.675310</ele>
        <time>2017-05-29T19:29:12.209Z</time>
      </trkpt>
      <trkpt lat="46.176004" lon="6.122449">
        <ele>399.682916</ele>
        <time>2017-05-29T19:29:12.531Z</time>
      </trkpt>
      <trkpt lat="46.175993" lon="6.122433">
        <ele>399.690106</ele>
        <time>2017-05-29T19:29:12.904Z</time>
      </trkpt>
      <trkpt lat="46.175883" lon="6.122362">
        <ele>399.745593</ele>
        <time>2017-05-29T19:29:15.669Z</time>
      </trkpt>
      <trkpt lat="46.175765" lon="6.122419">
        <ele>399.802895</ele>
        <time>2017-05-29T19:29:18.268Z</time>
      </trkpt>
      <trkpt lat="46.175742" lon="6.122452">
        <ele>399.817825</ele>
        <time>2017-05-29T19:29:19.032Z</time>
      </trkpt>
      <trkpt lat="46.175562" lon="6.122510">
        <ele>399.902758</ele>
        <time>2017-05-29T19:29:23.199Z</time>
      </trkpt>
      <trkpt lat="46.175342" lon="6.122614">
        <ele>400.009363</ele>
        <time>2017-05-29T19:29:28.425Z</time>
      </trkpt>
      <trkpt lat="46.175287" lon="6.122636">
        <ele>400.035646</ele>
        <time>2017-05-29T19:29:29.725Z</time>
      </trkpt>
      <trkpt lat="46.175177" lon="6.122671">
        <ele>400.062022</ele>
        <time>2017-05-29T19:29:32.454Z</time>
      </trkpt>
      <trkpt lat="46.174742" lon="6.122801">
        <ele>400.083009</ele>
        <time>2017-05-29T19:29:43.053Z</time>
      </trkpt>
      <trkpt lat="46.174177" lon="6.122965">
        <ele>400.110236</ele>
        <time>2017-05-29T19:29:56.270Z</time>
      </trkpt>
      <trkpt lat="46.174135" lon="6.122976">
        <ele>400.112253</ele>
        <time>2017-05-29T19:29:57.160Z</time>
      </trkpt>
      <trkpt lat="46.174103" lon="6.122984">
        <ele>400.113787</ele>
        <time>2017-05-29T19:29:57.781Z</time>
      </trkpt>
      <trkpt lat="46.174040" lon="6.123004">
        <ele>400.116834</ele>
        <time>2017-05-29T19:29:59.094Z</time>
      </trkpt>
      <trkpt lat="46.174010" lon="6.123014">
        <ele>400.118289</ele>
        <time>2017-05-29T19:29:59.798Z</time>
      </trkpt>
      <trkpt lat="46.173784" lon="6.123091">
        <ele>400.129259</ele>
        <time>2017-05-29T19:30:04.814Z</time>
      </trkpt>
      <trkpt lat="46.173626" lon="6.123125">
        <ele>400.136806</ele>
        <time>2017-05-29T19:30:07.984Z</time>
      </trkpt>
      <trkpt lat="46.173484" lon="6.123125">
        <ele>400.143515</ele>
        <time>2017-05-29T19:30:11.037Z</time>
      </trkpt>
      <trkpt lat="46.173439" lon="6.123133">
        <ele>400.149371</ele>
        <time>2017-05-29T19:30:12.048Z</time>
      </trkpt>
      <trkpt lat="46.173190" lon="6.123202">
        <ele>400.189620</ele>
        <time>2017-05-29T19:30:17.546Z</time>
      </trkpt>
      <trkpt lat="46.172895" lon="6.123290">
        <ele>400.237439</ele>
        <time>2017-05-29T19:30:24.600Z</time>
      </trkpt>
      <trkpt lat="46.172729" lon="6.123343">
        <ele>400.264428</ele>
        <time>2017-05-29T19:30:28.990Z</time>
      </trkpt>
      <trkpt lat="46.172638" lon="6.123378">
        <ele>400.279377</ele>
        <time>2017-05-29T19:30:31.022Z</time>
      </trkpt>
      <trkpt lat="46.172473" lon="6.123425">
        <ele>400.306075</ele>
        <time>2017-05-29T19:30:35.362Z</time>
      </trkpt>
      <trkpt lat="46.172301" lon="6.123471">
        <ele>400.333844</ele>
        <time>2017-05-29T19:30:39.494Z</time>
      </trkpt>
      <trkpt lat="46.172266" lon="6.123480">
        <ele>400.339487</ele>
        <time>2017-05-29T19:30:40.106Z</time>
      </trkpt>
      <trkpt lat="46.172226" lon="6.123499">
        <ele>400.346172</ele>
        <time>2017-05-29T19:30:41.183Z</time>
      </trkpt>
      <trkpt lat="46.172172" lon="6.123548">
        <ele>400.356296</ele>
        <time>2017-05-29T19:30:42.792Z</time>
      </trkpt>
      <trkpt lat="46.172101" lon="6.123695">
        <ele>400.375998</ele>
        <time>2017-05-29T19:30:45.767Z</time>
      </trkpt>
      <trkpt lat="46.172016" lon="6.123780">
        <ele>400.392411</ele>
        <time>2017-05-29T19:30:47.998Z</time>
      </trkpt>
      <trkpt lat="46.171995" lon="6.123786">
        <ele>400.395810</ele>
        <time>2017-05-29T19:30:48.341Z</time>
      </trkpt>
      <trkpt lat="46.171867" lon="6.123828">
        <ele>400.416647</ele>
        <time>2017-05-29T19:30:51.469Z</time>
      </trkpt>
      <trkpt lat="46.171682" lon="6.123870">
        <ele>400.534706</ele>
        <time>2017-05-29T19:30:55.565Z</time>
      </trkpt>
      <trkpt lat="46.171612" lon="6.123891">
        <ele>400.605857</ele>
        <time>2017-05-29T19:30:57.007Z</time>
      </trkpt>
      <trkpt lat="46.171574" lon="6.123910">
        <ele>400.645877</ele>
        <time>2017-05-29T19:30:57.956Z</time>
      </trkpt>
      <trkpt lat="46.171530" lon="6.123946">
        <ele>400.696205</ele>
        <time>2017-05-29T19:30:59.132Z</time>
      </trkpt>
      <trkpt lat="46.171504" lon="6.123931">
        <ele>400.724069</ele>
        <time>2017-05-29T19:30:59.795Z</time>
      </trkpt>
      <trkpt lat="46.171448" lon="6.123936">
        <ele>400.779906</ele>
        <time>2017-05-29T19:31:00.974Z</time>
      </trkpt>
      <trkpt lat="46.171423" lon="6.123955">
        <ele>400.808021</ele>
        <time>2017-05-29T19:31:01.645Z</time>
      </trkpt>
      <trkpt lat="46.171403" lon="6.123983">
        <ele>400.835743</ele>
        <time>2017-05-29T19:31:02.279Z</time>
      </trkpt>
      <trkpt lat="46.171382" lon="6.124057">
        <ele>400.890858</ele>
        <time>2017-05-29T19:31:03.495Z</time>
      </trkpt>
      <trkpt lat="46.171383" lon="6.124097">
        <ele>400.918443</ele>
        <time>2017-05-29T19:31:04.031Z</time>
      </trkpt>
      <trkpt lat="46.171297" lon="6.124109">
        <ele>401.004427</ele>
        <time>2017-05-29T19:31:05.969Z</time>
      </trkpt>
      <trkpt lat="46.171112" lon="6.124108">
        <ele>401.188538</ele>
        <time>2017-05-29T19:31:10.517Z</time>
      </trkpt>
      <trkpt lat="46.171004" lon="6.124104">
        <ele>401.296054</ele>
        <time>2017-05-29T19:31:12.920Z</time>
      </trkpt>
      <trkpt lat="46.170937" lon="6.124126">
        <ele>401.364434</ele>
        <time>2017-05-29T19:31:14.837Z</time>
      </trkpt>
      <trkpt lat="46.170750" lon="6.124189">
        <ele>401.555532</ele>
        <time>2017-05-29T19:31:20.073Z</time>
      </trkpt>
      <trkpt lat="46.170507" lon="6.124271">
        <ele>401.803878</ele>
        <time>2017-05-29T19:31:27.226Z</time>
      </trkpt>
      <trkpt lat="46.170062" lon="6.124444">
        <ele>402.334527</ele>
        <time>2017-05-29T19:31:41.569Z</time>
      </trkpt>
      <trkpt lat="46.169834" lon="6.124534">
        <ele>402.964616</ele>
        <time>2017-05-29T19:31:48.638Z</time>
      </trkpt>
      <trkpt lat="46.169786" lon="6.124551">
        <ele>403.096363</ele>
        <time>2017-05-29T19:31:50.136Z</time>
      </trkpt>
      <trkpt lat="46.169286" lon="6.124745">
        <ele>404.476510</ele>
        <time>2017-05-29T19:32:07.088Z</time>
      </trkpt>
      <trkpt lat="46.168724" lon="6.124964">
        <ele>406.028249</ele>
        <time>2017-05-29T19:32:26.317Z</time>
      </trkpt>
      <trkpt lat="46.168666" lon="6.124988">
        <ele>406.189085</ele>
        <time>2017-05-29T19:32:29.011Z</time>
      </trkpt>
      <trkpt lat="46.167678" lon="6.125334">
        <ele>409.103549</ele>
        <time>2017-05-29T19:33:03.975Z</time>
      </trkpt>
      <trkpt lat="46.167611" lon="6.125359">
        <ele>409.308021</ele>
        <time>2017-05-29T19:33:06.981Z</time>
      </trkpt>
      <trkpt lat="46.167392" lon="6.125434">
        <ele>409.973066</ele>
        <time>2017-05-29T19:33:14.008Z</time>
      </trkpt>
      <trkpt lat="46.166531" lon="6.125731">
        <ele>412.614528</ele>
        <time>2017-05-29T19:33:43.578Z</time>
      </trkpt>
      <trkpt lat="46.166306" lon="6.125811">
        <ele>413.367253</ele>
        <time>2017-05-29T19:33:51.662Z</time>
      </trkpt>
      <trkpt lat="46.166215" lon="6.125842">
        <ele>413.670974</ele>
        <time>2017-05-29T19:33:54.954Z</time>
      </trkpt>
      <trkpt lat="46.165831" lon="6.125990">
        <ele>414.962036</ele>
        <time>2017-05-29T19:34:08.512Z</time>
      </trkpt>
      <trkpt lat="46.165803" lon="6.126001">
        <ele>415.056298</ele>
        <time>2017-05-29T19:34:09.478Z</time>
      </trkpt>
      <trkpt lat="46.165500" lon="6.126128">
        <ele>416.081197</ele>
        <time>2017-05-29T19:34:20.644Z</time>
      </trkpt>
      <trkpt lat="46.165205" lon="6.126267">
        <ele>417.089212</ele>
        <time>2017-05-29T19:34:31.980Z</time>
      </trkpt>
      <trkpt lat="46.164933" lon="6.126411">
        <ele>418.030299</ele>
        <time>2017-05-29T19:34:42.681Z</time>
      </trkpt>
      <trkpt lat="46.164439" lon="6.126660">
        <ele>419.995720</ele>
        <time>2017-05-29T19:35:01.713Z</time>
      </trkpt>
      <trkpt lat="46.163937" lon="6.126920">
        <ele>422.023576</ele>
        <time>2017-05-29T19:35:21.675Z</time>
      </trkpt>
      <trkpt lat="46.163872" lon="6.126952">
        <ele>422.284700</ele>
        <time>2017-05-29T19:35:24.043Z</time>
      </trkpt>
      <trkpt lat="46.163516" lon="6.127126">
        <ele>423.713782</ele>
        <time>2017-05-29T19:35:38.019Z</time>
      </trkpt>
      <trkpt lat="46.163428" lon="6.127165">
        <ele>424.063795</ele>
        <time>2017-05-29T19:35:41.962Z</time>
      </trkpt>
      <trkpt lat="46.163351" lon="6.127191">
        <ele>424.364474</ele>
        <time>2017-05-29T19:35:44.638Z</time>
      </trkpt>
      <trkpt lat="46.163280" lon="6.127204">
        <ele>424.636601</ele>
        <time>2017-05-29T19:35:47.006Z</time>
      </trkpt>
      <trkpt lat="46.163225" lon="6.127204">
        <ele>424.845729</ele>
        <time>2017-05-29T19:35:48.976Z</time>
      </trkpt>
      <trkpt lat="46.163159" lon="6.127172">
        <ele>425.139066</ele>
        <time>2017-05-29T19:35:52.063Z</time>
      </trkpt>
      <trkpt lat="46.163127" lon="6.127147">
        <ele>425.317060</ele>
        <time>2017-05-29T19:35:53.773Z</time>
      </trkpt>
      <trkpt lat="46.163062" lon="6.127044">
        <ele>425.789192</ele>
        <time>2017-05-29T19:35:57.446Z</time>
      </trkpt>
      <trkpt lat="46.162644" lon="6.126296">
        <ele>429.045714</ele>
        <time>2017-05-29T19:36:24.405Z</time>
      </trkpt>
      <trkpt lat="46.162485" lon="6.126150">
        <ele>429.967533</ele>
        <time>2017-05-29T19:36:31.157Z</time>
      </trkpt>
      <trkpt lat="46.162429" lon="6.126141">
        <ele>430.243180</ele>
        <time>2017-05-29T19:36:33.612Z</time>
      </trkpt>
      <trkpt lat="46.162342" lon="6.126157">
        <ele>430.672228</ele>
        <time>2017-05-29T19:36:38.219Z</time>
      </trkpt>
      <trkpt lat="46.162055" lon="6.126187">
        <ele>432.079923</ele>
        <time>2017-05-29T19:36:49.486Z</time>
      </trkpt>
      <trkpt lat="46.161865" lon="6.126081">
        <ele>433.076393</ele>
        <time>2017-05-29T19:36:59.241Z</time>
      </trkpt>
      <trkpt lat="46.161114" lon="6.125290">
        <ele>438.571466</ele>
        <time>2017-05-29T19:37:43.446Z</time>
      </trkpt>
      <trkpt lat="46.161046" lon="6.125232">
        <ele>439.053808</ele>
        <time>2017-05-29T19:37:47.522Z</time>
      </trkpt>
      <trkpt lat="46.160884" lon="6.125129">
        <ele>440.134849</ele>
        <time>2017-05-29T19:37:55.993Z</time>
      </trkpt>
      <trkpt lat="46.160685" lon="6.125114">
        <ele>441.351824</ele>
        <time>2017-05-29T19:38:05.051Z</time>
      </trkpt>
      <trkpt lat="46.160634" lon="6.125122">
        <ele>441.665120</ele>
        <time>2017-05-29T19:38:07.785Z</time>
      </trkpt>
      <trkpt lat="46.160553" lon="6.125137">
        <ele>442.163851</ele>
        <time>2017-05-29T19:38:11.616Z</time>
      </trkpt>
      <trkpt lat="46.160268" lon="6.125149">
        <ele>443.905123</ele>
        <time>2017-05-29T19:38:24.784Z</time>
      </trkpt>
      <trkpt lat="46.159829" lon="6.125056">
        <ele>446.218098</ele>
        <time>2017-05-29T19:38:44.328Z</time>
      </trkpt>
      <trkpt lat="46.159755" lon="6.125041">
        <ele>446.575004</ele>
        <time>2017-05-29T19:38:47.564Z</time>
      </trkpt>
      <trkpt lat="46.159556" lon="6.125007">
        <ele>447.532105</ele>
        <time>2017-05-29T19:38:57.531Z</time>
      </trkpt>
      <trkpt lat="46.158290" lon="6.124775">
        <ele>453.505532</ele>
        <time>2017-05-29T19:39:48.255Z</time>
      </trkpt>
      <trkpt lat="46.158254" lon="6.124790">
        <ele>453.594569</ele>
        <time>2017-05-29T19:39:50.322Z</time>
      </trkpt>
      <trkpt lat="46.158222" lon="6.124813">
        <ele>453.679511</ele>
        <time>2017-05-29T19:39:52.507Z</time>
      </trkpt>
      <trkpt lat="46.157755" lon="6.125923">
        <ele>455.817147</ele>
        <time>2017-05-29T19:40:20.014Z</time>
      </trkpt>
      <trkpt lat="46.157627" lon="6.126043">
        <ele>456.179814</ele>
        <time>2017-05-29T19:40:24.738Z</time>
      </trkpt>
      <trkpt lat="46.157612" lon="6.126044">
        <ele>456.215496</ele>
        <time>2017-05-29T19:40:25.749Z</time>
      </trkpt>
      <trkpt lat="46.157575" lon="6.126040">
        <ele>456.303663</ele>
        <time>2017-05-29T19:40:26.768Z</time>
      </trkpt>
      <trkpt lat="46.157499" lon="6.125985">
        <ele>456.505679</ele>
        <time>2017-05-29T19:40:28.914Z</time>
      </trkpt>
      <trkpt lat="46.157355" lon="6.125787">
        <ele>456.978228</ele>
        <time>2017-05-29T19:40:34.254Z</time>
      </trkpt>
      <trkpt lat="46.157250" lon="6.125640">
        <ele>457.325789</ele>
        <time>2017-05-29T19:40:39.175Z</time>
      </trkpt>
      <trkpt lat="46.157153" lon="6.125511">
        <ele>457.639180</ele>
        <time>2017-05-29T19:40:42.836Z</time>
      </trkpt>
      <trkpt lat="46.157112" lon="6.125440">
        <ele>457.773611</ele>
        <time>2017-05-29T19:40:44.293Z</time>
      </trkpt>
      <trkpt lat="46.156991" lon="6.125214">
        <ele>458.180819</ele>
        <time>2017-05-29T19:40:49.742Z</time>
      </trkpt>
      <trkpt lat="46.156789" lon="6.124916">
        <ele>458.775223</ele>
        <time>2017-05-29T19:40:57.249Z</time>
      </trkpt>
      <trkpt lat="46.156740" lon="6.124854">
        <ele>458.909321</ele>
        <time>2017-05-29T19:40:59.494Z</time>
      </trkpt>
      <trkpt lat="46.156539" lon="6.124611">
        <ele>459.448892</ele>
        <time>2017-05-29T19:41:07.044Z</time>
      </trkpt>
      <trkpt lat="46.156459" lon="6.124531">
        <ele>459.649181</ele>
        <time>2017-05-29T19:41:10.772Z</time>
      </trkpt>
      <trkpt lat="46.156367" lon="6.124458">
        <ele>459.865241</ele>
        <time>2017-05-29T19:41:13.984Z</time>
      </trkpt>
      <trkpt lat="46.156283" lon="6.124404">
        <ele>460.054486</ele>
        <time>2017-05-29T19:41:16.336Z</time>
      </trkpt>
      <trkpt lat="46.156174" lon="6.124357">
        <ele>460.288610</ele>
        <time>2017-05-29T19:41:19.744Z</time>
      </trkpt>
      <trkpt lat="46.156050" lon="6.124306">
        <ele>460.553967</ele>
        <time>2017-05-29T19:41:24.529Z</time>
      </trkpt>
      <trkpt lat="46.155487" lon="6.124035">
        <ele>461.878702</ele>
        <time>2017-05-29T19:41:43.251Z</time>
      </trkpt>
      <trkpt lat="46.155424" lon="6.124005">
        <ele>462.049255</ele>
        <time>2017-05-29T19:41:46.165Z</time>
      </trkpt>
      <trkpt lat="46.155224" lon="6.123919">
        <ele>462.585767</ele>
        <time>2017-05-29T19:41:52.612Z</time>
      </trkpt>
      <trkpt lat="46.155168" lon="6.123898">
        <ele>462.734518</ele>
        <time>2017-05-29T19:41:54.324Z</time>
      </trkpt>
      <trkpt lat="46.155168" lon="6.123843">
        <ele>462.832467</ele>
        <time>2017-05-29T19:41:56.207Z</time>
      </trkpt>
      <trkpt lat="46.155128" lon="6.123781">
        <ele>462.983355</ele>
        <time>2017-05-29T19:41:58.651Z</time>
      </trkpt>
      <trkpt lat="46.154266" lon="6.123452">
        <ele>465.275647</ele>
        <time>2017-05-29T19:42:29.340Z</time>
      </trkpt>
      <trkpt lat="46.151545" lon="6.122275">
        <ele>469.794865</ele>
        <time>2017-05-29T19:43:53.542Z</time>
      </trkpt>
      <trkpt lat="46.151376" lon="6.122166">
        <ele>469.981362</ele>
        <time>2017-05-29T19:43:58.322Z</time>
      </trkpt>
      <trkpt lat="46.151309" lon="6.122057">
        <ele>470.083072</ele>
        <time>2017-05-29T19:44:00.946Z</time>
      </trkpt>
      <trkpt lat="46.151296" lon="6.121975">
        <ele>470.141786</ele>
        <time>2017-05-29T19:44:02.510Z</time>
      </trkpt>
      <trkpt lat="46.151212" lon="6.121940">
        <ele>470.229874</ele>
        <time>2017-05-29T19:44:04.715Z</time>
      </trkpt>
      <trkpt lat="46.151136" lon="6.121901">
        <ele>470.311141</ele>
        <time>2017-05-29T19:44:06.747Z</time>
      </trkpt>
      <trkpt lat="46.151121" lon="6.121929">
        <ele>470.335846</ele>
        <time>2017-05-29T19:44:07.342Z</time>
      </trkpt>
      <trkpt lat="46.151065" lon="6.121979">
        <ele>470.402189</ele>
        <time>2017-05-29T19:44:09.006Z</time>
      </trkpt>
      <trkpt lat="46.151027" lon="6.121986">
        <ele>470.440786</ele>
        <time>2017-05-29T19:44:09.937Z</time>
      </trkpt>
      <trkpt lat="46.151016" lon="6.122093">
        <ele>470.516288</ele>
        <time>2017-05-29T19:44:11.843Z</time>
      </trkpt>
      <trkpt lat="46.151005" lon="6.122181">
        <ele>470.578702</ele>
        <time>2017-05-29T19:44:13.477Z</time>
      </trkpt>
      <trkpt lat="46.151054" lon="6.122399">
        <ele>470.738670</ele>
        <time>2017-05-29T19:44:17.434Z</time>
      </trkpt>
      <trkpt lat="46.151031" lon="6.122619">
        <ele>470.874827</ele>
        <time>2017-05-29T19:44:21.239Z</time>
      </trkpt>
      <trkpt lat="46.150867" lon="6.123271">
        <ele>471.201072</ele>
        <time>2017-05-29T19:44:33.326Z</time>
      </trkpt>
      <trkpt lat="46.150821" lon="6.123437">
        <ele>471.285162</ele>
        <time>2017-05-29T19:44:36.334Z</time>
      </trkpt>
      <trkpt lat="46.150675" lon="6.123857">
        <ele>471.506177</ele>
        <time>2017-05-29T19:44:44.656Z</time>
      </trkpt>
      <trkpt lat="46.150613" lon="6.124015">
        <ele>471.591584</ele>
        <time>2017-05-29T19:44:47.799Z</time>
      </trkpt>
      <trkpt lat="46.150557" lon="6.124159">
        <ele>471.669254</ele>
        <time>2017-05-29T19:44:51.023Z</time>
      </trkpt>
      <trkpt lat="46.150377" lon="6.124572">
        <ele>471.898747</ele>
        <time>2017-05-29T19:45:00.013Z</time>
      </trkpt>
      <trkpt lat="46.150012" lon="6.125389">
        <ele>472.484280</ele>
        <time>2017-05-29T19:45:18.281Z</time>
      </trkpt>
      <trkpt lat="46.149704" lon="6.126079">
        <ele>473.035694</ele>
        <time>2017-05-29T19:45:34.167Z</time>
      </trkpt>
      <trkpt lat="46.149602" lon="6.126209">
        <ele>473.167640</ele>
        <time>2017-05-29T19:45:37.915Z</time>
      </trkpt>
      <trkpt lat="46.149319" lon="6.126879">
        <ele>473.694794</ele>
        <time>2017-05-29T19:45:52.619Z</time>
      </trkpt>
      <trkpt lat="46.149314" lon="6.126923">
        <ele>473.724748</ele>
        <time>2017-05-29T19:45:53.538Z</time>
      </trkpt>
      <trkpt lat="46.149310" lon="6.126958">
        <ele>473.748578</ele>
        <time>2017-05-29T19:45:54.346Z</time>
      </trkpt>
      <trkpt lat="46.149180" lon="6.127185">
        <ele>473.829217</ele>
        <time>2017-05-29T19:45:59.560Z</time>
      </trkpt>
      <trkpt lat="46.148603" lon="6.128457">
        <ele>474.029873</ele>
        <time>2017-05-29T19:46:25.363Z</time>
      </trkpt>
      <trkpt lat="46.148475" lon="6.128758">
        <ele>474.076485</ele>
        <time>2017-05-29T19:46:30.809Z</time>
      </trkpt>
      <trkpt lat="46.148404" lon="6.129065">
        <ele>474.119199</ele>
        <time>2017-05-29T19:46:35.973Z</time>
      </trkpt>
      <trkpt lat="46.148312" lon="6.129342">
        <ele>474.120814</ele>
        <time>2017-05-29T19:46:40.395Z</time>
      </trkpt>
      <trkpt lat="46.148151" lon="6.129817">
        <ele>474.026368</ele>
        <time>2017-05-29T19:46:48.334Z</time>
      </trkpt>
      <trkpt lat="46.148054" lon="6.130014">
        <ele>473.983201</ele>
        <time>2017-05-29T19:46:52.168Z</time>
      </trkpt>
      <trkpt lat="46.148041" lon="6.130057">
        <ele>473.974822</ele>
        <time>2017-05-29T19:46:52.909Z</time>
      </trkpt>
      <trkpt lat="46.148029" lon="6.130115">
        <ele>473.964011</ele>
        <time>2017-05-29T19:46:53.624Z</time>
      </trkpt>
      <trkpt lat="46.147665" lon="6.131131">
        <ele>473.759720</ele>
        <time>2017-05-29T19:47:10.970Z</time>
      </trkpt>
      <trkpt lat="46.147591" lon="6.131467">
        <ele>473.696749</ele>
        <time>2017-05-29T19:47:16.710Z</time>
      </trkpt>
      <trkpt lat="46.147003" lon="6.133191">
        <ele>474.525674</ele>
        <time>2017-05-29T19:47:49.916Z</time>
      </trkpt>
      <trkpt lat="46.146708" lon="6.133863">
        <ele>474.902077</ele>
        <time>2017-05-29T19:48:05.300Z</time>
      </trkpt>
      <trkpt lat="46.146589" lon="6.133974">
        <ele>475.060120</ele>
        <time>2017-05-29T19:48:09.772Z</time>
      </trkpt>
      <trkpt lat="46.146345" lon="6.134548">
        <ele>475.580548</ele>
        <time>2017-05-29T19:48:23.535Z</time>
      </trkpt>
      <trkpt lat="46.146069" lon="6.135030">
        <ele>476.063796</ele>
        <time>2017-05-29T19:48:36.017Z</time>
      </trkpt>
      <trkpt lat="46.145754" lon="6.135424">
        <ele>476.528736</ele>
        <time>2017-05-29T19:48:47.101Z</time>
      </trkpt>
      <trkpt lat="46.145707" lon="6.135486">
        <ele>476.599759</ele>
        <time>2017-05-29T19:48:49.280Z</time>
      </trkpt>
      <trkpt lat="46.145201" lon="6.136112">
        <ele>476.942194</ele>
        <time>2017-05-29T19:49:05.518Z</time>
      </trkpt>
      <trkpt lat="46.145236" lon="6.136172">
        <ele>476.949236</ele>
        <time>2017-05-29T19:49:07.255Z</time>
      </trkpt>
      <trkpt lat="46.145197" lon="6.136217">
        <ele>476.955707</ele>
        <time>2017-05-29T19:49:08.229Z</time>
      </trkpt>
      <trkpt lat="46.145173" lon="6.136274">
        <ele>476.961695</ele>
        <time>2017-05-29T19:49:09.252Z</time>
      </trkpt>
      <trkpt lat="46.145108" lon="6.136383">
        <ele>476.974608</ele>
        <time>2017-05-29T19:49:11.337Z</time>
      </trkpt>
      <trkpt lat="46.145041" lon="6.136481">
        <ele>476.986970</ele>
        <time>2017-05-29T19:49:13.384Z</time>
      </trkpt>
      <trkpt lat="46.144983" lon="6.136551">
        <ele>476.996767</ele>
        <time>2017-05-29T19:49:15.549Z</time>
      </trkpt>
      <trkpt lat="46.144953" lon="6.136583">
        <ele>477.001602</ele>
        <time>2017-05-29T19:49:16.218Z</time>
      </trkpt>
      <trkpt lat="46.144884" lon="6.136657">
        <ele>477.012742</ele>
        <time>2017-05-29T19:49:17.949Z</time>
      </trkpt>
      <trkpt lat="46.144545" lon="6.136989">
        <ele>477.065832</ele>
        <time>2017-05-29T19:49:26.926Z</time>
      </trkpt>
      <trkpt lat="46.144465" lon="6.137065">
        <ele>477.078244</ele>
        <time>2017-05-29T19:49:29.038Z</time>
      </trkpt>
      <trkpt lat="46.144373" lon="6.137158">
        <ele>477.092800</ele>
        <time>2017-05-29T19:49:31.435Z</time>
      </trkpt>
      <trkpt lat="46.144326" lon="6.137214">
        <ele>477.100698</ele>
        <time>2017-05-29T19:49:32.751Z</time>
      </trkpt>
      <trkpt lat="46.144211" lon="6.137356">
        <ele>477.120311</ele>
        <time>2017-05-29T19:49:36.219Z</time>
      </trkpt>
      <trkpt lat="46.143927" lon="6.137730">
        <ele>477.554725</ele>
        <time>2017-05-29T19:49:44.868Z</time>
      </trkpt>
      <trkpt lat="46.143910" lon="6.137755">
        <ele>477.583307</ele>
        <time>2017-05-29T19:49:45.368Z</time>
      </trkpt>
      <trkpt lat="46.143778" lon="6.137949">
        <ele>477.805173</ele>
        <time>2017-05-29T19:49:49.663Z</time>
      </trkpt>
      <trkpt lat="46.143653" lon="6.138167">
        <ele>478.036070</ele>
        <time>2017-05-29T19:49:54.664Z</time>
      </trkpt>
      <trkpt lat="46.143397" lon="6.138512">
        <ele>478.448555</ele>
        <time>2017-05-29T19:50:04.056Z</time>
      </trkpt>
      <trkpt lat="46.143355" lon="6.138569">
        <ele>478.516451</ele>
        <time>2017-05-29T19:50:05.940Z</time>
      </trkpt>
      <trkpt lat="46.143163" lon="6.138831">
        <ele>478.827632</ele>
        <time>2017-05-29T19:50:13.569Z</time>
      </trkpt>
      <trkpt lat="46.142377" lon="6.139921">
        <ele>481.536071</ele>
        <time>2017-05-29T19:50:49.035Z</time>
      </trkpt>
      <trkpt lat="46.142323" lon="6.139955">
        <ele>481.719011</ele>
        <time>2017-05-29T19:50:51.482Z</time>
      </trkpt>
      <trkpt lat="46.142315" lon="6.139932">
        <ele>481.774380</ele>
        <time>2017-05-29T19:50:52.132Z</time>
      </trkpt>
      <trkpt lat="46.142261" lon="6.139866">
        <ele>481.994106</ele>
        <time>2017-05-29T19:50:54.443Z</time>
      </trkpt>
      <trkpt lat="46.142241" lon="6.139858">
        <ele>482.058550</ele>
        <time>2017-05-29T19:50:55.261Z</time>
      </trkpt>
      <trkpt lat="46.142207" lon="6.139752">
        <ele>482.309858</ele>
        <time>2017-05-29T19:50:58.147Z</time>
      </trkpt>
      <trkpt lat="46.142141" lon="6.139560">
        <ele>482.770986</ele>
        <time>2017-05-29T19:51:03.644Z</time>
      </trkpt>
      <trkpt lat="46.142054" lon="6.139178">
        <ele>483.636111</ele>
        <time>2017-05-29T19:51:13.566Z</time>
      </trkpt>
      <trkpt lat="46.141802" lon="6.137986">
        <ele>486.845237</ele>
        <time>2017-05-29T19:51:45.054Z</time>
      </trkpt>
      <trkpt lat="46.141610" lon="6.137195">
        <ele>489.286637</ele>
        <time>2017-05-29T19:52:08.224Z</time>
      </trkpt>
      <trkpt lat="46.141579" lon="6.137060">
        <ele>489.700912</ele>
        <time>2017-05-29T19:52:12.201Z</time>
      </trkpt>
      <trkpt lat="46.141506" lon="6.136751">
        <ele>490.651883</ele>
        <time>2017-05-29T19:52:21.239Z</time>
      </trkpt>
      <trkpt lat="46.141459" lon="6.136545">
        <ele>491.283637</ele>
        <time>2017-05-29T19:52:27.111Z</time>
      </trkpt>
      <trkpt lat="46.141398" lon="6.136280">
        <ele>492.097043</ele>
        <time>2017-05-29T19:52:34.984Z</time>
      </trkpt>
      <trkpt lat="46.141329" lon="6.136317">
        <ele>492.414654</ele>
        <time>2017-05-29T19:52:37.846Z</time>
      </trkpt>
      <trkpt lat="46.141282" lon="6.136336">
        <ele>492.708020</ele>
        <time>2017-05-29T19:52:39.964Z</time>
      </trkpt>
      <trkpt lat="46.141211" lon="6.136366">
        <ele>493.152677</ele>
        <time>2017-05-29T19:52:42.421Z</time>
      </trkpt>
      <trkpt lat="46.141131" lon="6.136393">
        <ele>493.646488</ele>
        <time>2017-05-29T19:52:45.710Z</time>
      </trkpt>
      <trkpt lat="46.141100" lon="6.136369">
        <ele>493.857928</ele>
        <time>2017-05-29T19:52:48.048Z</time>
      </trkpt>
      <trkpt lat="46.140937" lon="6.135984">
        <ele>495.736919</ele>
        <time>2017-05-29T19:53:00.518Z</time>
      </trkpt>
      <trkpt lat="46.140812" lon="6.135796">
        <ele>496.822031</ele>
        <time>2017-05-29T19:53:08.966Z</time>
      </trkpt>
      <trkpt lat="46.140093" lon="6.135197">
        <ele>501.811899</ele>
        <time>2017-05-29T19:53:49.290Z</time>
      </trkpt>
      <trkpt lat="46.139630" lon="6.134827">
        <ele>505.355174</ele>
        <time>2017-05-29T19:54:16.308Z</time>
      </trkpt>
      <trkpt lat="46.139351" lon="6.134616">
        <ele>507.630569</ele>
        <time>2017-05-29T19:54:32.413Z</time>
      </trkpt>
      <trkpt lat="46.139128" lon="6.134470">
        <ele>509.399488</ele>
        <time>2017-05-29T19:54:45.787Z</time>
      </trkpt>
      <trkpt lat="46.138999" lon="6.134392">
        <ele>510.409840</ele>
        <time>2017-05-29T19:54:52.096Z</time>
      </trkpt>
      <trkpt lat="46.138891" lon="6.134335">
        <ele>511.240543</ele>
        <time>2017-05-29T19:54:58.319Z</time>
      </trkpt>
      <trkpt lat="46.138811" lon="6.134290">
        <ele>511.860791</ele>
        <time>2017-05-29T19:55:03.621Z</time>
      </trkpt>
      <trkpt lat="46.138542" lon="6.134285">
        <ele>513.804153</ele>
        <time>2017-05-29T19:55:16.991Z</time>
      </trkpt>
      <trkpt lat="46.137981" lon="6.134682">
        <ele>518.085874</ele>
        <time>2017-05-29T19:55:48.281Z</time>
      </trkpt>
      <trkpt lat="46.137545" lon="6.134820">
        <ele>520.958783</ele>
        <time>2017-05-29T19:56:11.272Z</time>
      </trkpt>
      <trkpt lat="46.137367" lon="6.134778">
        <ele>522.119650</ele>
        <time>2017-05-29T19:56:19.955Z</time>
      </trkpt>
      <trkpt lat="46.137244" lon="6.134680">
        <ele>523.023948</ele>
        <time>2017-05-29T19:56:26.856Z</time>
      </trkpt>
      <trkpt lat="46.136453" lon="6.133930">
        <ele>528.998266</ele>
        <time>2017-05-29T19:57:08.935Z</time>
      </trkpt>
      <trkpt lat="46.136385" lon="6.133817">
        <ele>529.607663</ele>
        <time>2017-05-29T19:57:14.078Z</time>
      </trkpt>
      <trkpt lat="46.136305" lon="6.133829">
        <ele>530.080283</ele>
        <time>2017-05-29T19:57:18.103Z</time>
      </trkpt>
      <trkpt lat="46.135857" lon="6.133659">
        <ele>532.802260</ele>
        <time>2017-05-29T19:57:38.599Z</time>
      </trkpt>
      <trkpt lat="46.135713" lon="6.133552">
        <ele>533.753998</ele>
        <time>2017-05-29T19:57:46.184Z</time>
      </trkpt>
      <trkpt lat="46.135588" lon="6.133390">
        <ele>534.741234</ele>
        <time>2017-05-29T19:57:53.540Z</time>
      </trkpt>
      <trkpt lat="46.135485" lon="6.133293">
        <ele>535.463947</ele>
        <time>2017-05-29T19:57:59.076Z</time>
      </trkpt>
      <trkpt lat="46.135401" lon="6.133275">
        <ele>535.962951</ele>
        <time>2017-05-29T19:58:03.307Z</time>
      </trkpt>
      <trkpt lat="46.135344" lon="6.133284">
        <ele>536.299887</ele>
        <time>2017-05-29T19:58:06.094Z</time>
      </trkpt>
      <trkpt lat="46.135263" lon="6.133312">
        <ele>536.789316</ele>
        <time>2017-05-29T19:58:09.621Z</time>
      </trkpt>
      <trkpt lat="46.135018" lon="6.133395">
        <ele>538.268097</ele>
        <time>2017-05-29T19:58:21.925Z</time>
      </trkpt>
      <trkpt lat="46.135001" lon="6.133404">
        <ele>538.379558</ele>
        <time>2017-05-29T19:58:22.958Z</time>
      </trkpt>
      <trkpt lat="46.134914" lon="6.133456">
        <ele>539.007121</ele>
        <time>2017-05-29T19:58:27.335Z</time>
      </trkpt>
      <trkpt lat="46.134811" lon="6.133557">
        <ele>539.837028</ele>
        <time>2017-05-29T19:58:33.196Z</time>
      </trkpt>
      <trkpt lat="46.134494" lon="6.133284">
        <ele>542.297233</ele>
        <time>2017-05-29T19:58:49.636Z</time>
      </trkpt>
      <trkpt lat="46.134438" lon="6.133232">
        <ele>542.741025</ele>
        <time>2017-05-29T19:58:52.667Z</time>
      </trkpt>
      <trkpt lat="46.134275" lon="6.133086">
        <ele>544.019559</ele>
        <time>2017-05-29T19:59:01.783Z</time>
      </trkpt>
      <trkpt lat="46.134024" lon="6.132873">
        <ele>545.960109</ele>
        <time>2017-05-29T19:59:16.289Z</time>
      </trkpt>
      <trkpt lat="46.133818" lon="6.132792">
        <ele>547.383019</ele>
        <time>2017-05-29T19:59:26.529Z</time>
      </trkpt>
      <trkpt lat="46.133568" lon="6.132694">
        <ele>549.109487</ele>
        <time>2017-05-29T19:59:40.105Z</time>
      </trkpt>
      <trkpt lat="46.133167" lon="6.132557">
        <ele>552.087670</ele>
        <time>2017-05-29T20:00:02.146Z</time>
      </trkpt>
      <trkpt lat="46.132737" lon="6.132405">
        <ele>555.484624</ele>
        <time>2017-05-29T20:00:26.006Z</time>
      </trkpt>
      <trkpt lat="46.132468" lon="6.132310">
        <ele>557.609585</ele>
        <time>2017-05-29T20:00:40.817Z</time>
      </trkpt>
      <trkpt lat="46.132402" lon="6.132311">
        <ele>558.116032</ele>
        <time>2017-05-29T20:00:43.911Z</time>
      </trkpt>
      <trkpt lat="46.132348" lon="6.132308">
        <ele>558.530683</ele>
        <time>2017-05-29T20:00:47.700Z</time>
      </trkpt>
      <trkpt lat="46.132252" lon="6.132198">
        <ele>559.471277</ele>
        <time>2017-05-29T20:00:54.625Z</time>
      </trkpt>
      <trkpt lat="46.132246" lon="6.132165">
        <ele>559.652689</ele>
        <time>2017-05-29T20:00:55.830Z</time>
      </trkpt>
      <trkpt lat="46.132228" lon="6.132132">
        <ele>559.875998</ele>
        <time>2017-05-29T20:00:57.321Z</time>
      </trkpt>
      <trkpt lat="46.132191" lon="6.132109">
        <ele>560.185121</ele>
        <time>2017-05-29T20:00:59.454Z</time>
      </trkpt>
      <trkpt lat="46.132141" lon="6.132128">
        <ele>560.581853</ele>
        <time>2017-05-29T20:01:01.943Z</time>
      </trkpt>
      <trkpt lat="46.132119" lon="6.132168">
        <ele>560.853395</ele>
        <time>2017-05-29T20:01:03.414Z</time>
      </trkpt>
      <trkpt lat="46.132004" lon="6.132254">
        <ele>561.847249</ele>
        <time>2017-05-29T20:01:10.935Z</time>
      </trkpt>
      <trkpt lat="46.131841" lon="6.132403">
        <ele>563.327786</ele>
        <time>2017-05-29T20:01:20.313Z</time>
      </trkpt>
      <trkpt lat="46.131406" lon="6.132721">
        <ele>566.569026</ele>
        <time>2017-05-29T20:01:45.843Z</time>
      </trkpt>
      <trkpt lat="46.131137" lon="6.132844">
        <ele>568.366283</ele>
        <time>2017-05-29T20:01:59.240Z</time>
      </trkpt>
      <trkpt lat="46.131021" lon="6.132850">
        <ele>569.105577</ele>
        <time>2017-05-29T20:02:05.844Z</time>
      </trkpt>
      <trkpt lat="46.130857" lon="6.132855">
        <ele>570.150348</ele>
        <time>2017-05-29T20:02:13.321Z</time>
      </trkpt>
      <trkpt lat="46.130150" lon="6.132796">
        <ele>574.660848</ele>
        <time>2017-05-29T20:02:44.454Z</time>
      </trkpt>
      <trkpt lat="46.129861" lon="6.132754">
        <ele>576.514396</ele>
        <time>2017-05-29T20:02:57.871Z</time>
      </trkpt>
      <trkpt lat="46.128987" lon="6.132517">
        <ele>582.200111</ele>
        <time>2017-05-29T20:03:38.890Z</time>
      </trkpt>
      <trkpt lat="46.128506" lon="6.132399">
        <ele>585.319504</ele>
        <time>2017-05-29T20:04:03.144Z</time>
      </trkpt>
      <trkpt lat="46.127281" lon="6.132204">
        <ele>594.602693</ele>
        <time>2017-05-29T20:05:06.559Z</time>
      </trkpt>
      <trkpt lat="46.126692" lon="6.132089">
        <ele>599.274486</ele>
        <time>2017-05-29T20:05:40.203Z</time>
      </trkpt>
      <trkpt lat="46.126234" lon="6.131823">
        <ele>602.991548</ele>
        <time>2017-05-29T20:06:08.599Z</time>
      </trkpt>
      <trkpt lat="46.125910" lon="6.131598">
        <ele>605.579253</ele>
        <time>2017-05-29T20:06:28.465Z</time>
      </trkpt>
      <trkpt lat="46.125139" lon="6.131043">
        <ele>611.780031</ele>
        <time>2017-05-29T20:07:12.129Z</time>
      </trkpt>
      <trkpt lat="46.124969" lon="6.130921">
        <ele>613.146430</ele>
        <time>2017-05-29T20:07:21.460Z</time>
      </trkpt>
      <trkpt lat="46.124589" lon="6.130586">
        <ele>615.330952</ele>
        <time>2017-05-29T20:07:41.559Z</time>
      </trkpt>
      <trkpt lat="46.123001" lon="6.129115">
        <ele>622.450219</ele>
        <time>2017-05-29T20:08:47.316Z</time>
      </trkpt>
      <trkpt lat="46.122261" lon="6.128455">
        <ele>625.498153</ele>
        <time>2017-05-29T20:09:18.860Z</time>
      </trkpt>
      <trkpt lat="46.122170" lon="6.128389">
        <ele>625.854984</ele>
        <time>2017-05-29T20:09:23.040Z</time>
      </trkpt>
      <trkpt lat="46.122036" lon="6.128405">
        <ele>626.326051</ele>
        <time>2017-05-29T20:09:28.154Z</time>
      </trkpt>
      <trkpt lat="46.121976" lon="6.128269">
        <ele>626.717527</ele>
        <time>2017-05-29T20:09:32.013Z</time>
      </trkpt>
      <trkpt lat="46.121922" lon="6.128185">
        <ele>626.995734</ele>
        <time>2017-05-29T20:09:35.550Z</time>
      </trkpt>
      <trkpt lat="46.121778" lon="6.128040">
        <ele>627.618212</ele>
        <time>2017-05-29T20:09:41.948Z</time>
      </trkpt>
      <trkpt lat="46.120897" lon="6.127442">
        <ele>631.134538</ele>
        <time>2017-05-29T20:10:16.597Z</time>
      </trkpt>
      <trkpt lat="46.120842" lon="6.127405">
        <ele>631.353706</ele>
        <time>2017-05-29T20:10:18.679Z</time>
      </trkpt>
      <trkpt lat="46.120782" lon="6.127389">
        <ele>631.574069</ele>
        <time>2017-05-29T20:10:20.736Z</time>
      </trkpt>
      <trkpt lat="46.120513" lon="6.126481">
        <ele>634.173085</ele>
        <time>2017-05-29T20:10:46.507Z</time>
      </trkpt>
      <trkpt lat="46.120486" lon="6.126406">
        <ele>634.538856</ele>
        <time>2017-05-29T20:10:49.004Z</time>
      </trkpt>
      <trkpt lat="46.120557" lon="6.126045">
        <ele>636.162948</ele>
        <time>2017-05-29T20:10:59.444Z</time>
      </trkpt>
      <trkpt lat="46.120544" lon="6.125810">
        <ele>637.183265</ele>
        <time>2017-05-29T20:11:06.431Z</time>
      </trkpt>
      <trkpt lat="46.120484" lon="6.125551">
        <ele>638.365170</ele>
        <time>2017-05-29T20:11:14.534Z</time>
      </trkpt>
      <trkpt lat="46.120486" lon="6.125383">
        <ele>639.092384</ele>
        <time>2017-05-29T20:11:21.117Z</time>
      </trkpt>
      <trkpt lat="46.120530" lon="6.125153">
        <ele>640.125046</ele>
        <time>2017-05-29T20:11:29.399Z</time>
      </trkpt>
      <trkpt lat="46.120089" lon="6.124826">
        <ele>643.221076</ele>
        <time>2017-05-29T20:11:55.393Z</time>
      </trkpt>
      <trkpt lat="46.119746" lon="6.124530">
        <ele>645.884532</ele>
        <time>2017-05-29T20:12:16.524Z</time>
      </trkpt>
      <trkpt lat="46.119510" lon="6.124402">
        <ele>647.888945</ele>
        <time>2017-05-29T20:12:30.906Z</time>
      </trkpt>
      <trkpt lat="46.119211" lon="6.124353">
        <ele>650.281288</ele>
        <time>2017-05-29T20:12:48.900Z</time>
      </trkpt>
      <trkpt lat="46.119222" lon="6.124075">
        <ele>651.815739</ele>
        <time>2017-05-29T20:13:00.404Z</time>
      </trkpt>
      <trkpt lat="46.119168" lon="6.123612">
        <ele>654.403030</ele>
        <time>2017-05-29T20:13:18.914Z</time>
      </trkpt>
      <trkpt lat="46.119106" lon="6.123362">
        <ele>655.866212</ele>
        <time>2017-05-29T20:13:28.944Z</time>
      </trkpt>
      <trkpt lat="46.119030" lon="6.123130">
        <ele>657.280266</ele>
        <time>2017-05-29T20:13:37.361Z</time>
      </trkpt>
      <trkpt lat="46.118907" lon="6.122864">
        <ele>659.042331</ele>
        <time>2017-05-29T20:13:48.896Z</time>
      </trkpt>
      <trkpt lat="46.118724" lon="6.122586">
        <ele>660.747236</ele>
        <time>2017-05-29T20:14:02.273Z</time>
      </trkpt>
      <trkpt lat="46.118399" lon="6.122190">
        <ele>663.342649</ele>
        <time>2017-05-29T20:14:21.984Z</time>
      </trkpt>
      <trkpt lat="46.118231" lon="6.122039">
        <ele>664.550269</ele>
        <time>2017-05-29T20:14:30.503Z</time>
      </trkpt>
      <trkpt lat="46.118038" lon="6.121930">
        <ele>665.814775</ele>
        <time>2017-05-29T20:14:40.415Z</time>
      </trkpt>
      <trkpt lat="46.117514" lon="6.121936">
        <ele>669.011796</ele>
        <time>2017-05-29T20:15:04.643Z</time>
      </trkpt>
      <trkpt lat="46.117258" lon="6.121997">
        <ele>670.572627</ele>
        <time>2017-05-29T20:15:15.970Z</time>
      </trkpt>
      <trkpt lat="46.117138" lon="6.122038">
        <ele>671.249007</ele>
        <time>2017-05-29T20:15:21.555Z</time>
      </trkpt>
      <trkpt lat="46.116804" lon="6.122239">
        <ele>673.233924</ele>
        <time>2017-05-29T20:15:37.664Z</time>
      </trkpt>
      <trkpt lat="46.116532" lon="6.122385">
        <ele>674.825703</ele>
        <time>2017-05-29T20:15:50.618Z</time>
      </trkpt>
      <trkpt lat="46.116404" lon="6.122386">
        <ele>675.527764</ele>
        <time>2017-05-29T20:15:56.537Z</time>
      </trkpt>
      <trkpt lat="46.116064" lon="6.122111">
        <ele>677.665693</ele>
        <time>2017-05-29T20:16:14.333Z</time>
      </trkpt>
      <trkpt lat="46.115929" lon="6.121967">
        <ele>678.586566</ele>
        <time>2017-05-29T20:16:22.033Z</time>
      </trkpt>
      <trkpt lat="46.115272" lon="6.121237">
        <ele>682.264114</ele>
        <time>2017-05-29T20:16:56.085Z</time>
      </trkpt>
      <trkpt lat="46.114784" lon="6.120542">
        <ele>684.893697</ele>
        <time>2017-05-29T20:17:21.956Z</time>
      </trkpt>
      <trkpt lat="46.114301" lon="6.119683">
        <ele>687.419029</ele>
        <time>2017-05-29T20:17:49.215Z</time>
      </trkpt>
      <trkpt lat="46.113016" lon="6.117210">
        <ele>689.917536</ele>
        <time>2017-05-29T20:18:47.171Z</time>
      </trkpt>
      <trkpt lat="46.112733" lon="6.116786">
        <ele>689.910349</ele>
        <time>2017-05-29T20:18:55.686Z</time>
      </trkpt>
      <trkpt lat="46.112423" lon="6.116400">
        <ele>689.903136</ele>
        <time>2017-05-29T20:19:03.929Z</time>
      </trkpt>
      <trkpt lat="46.111880" lon="6.116112">
        <ele>689.862402</ele>
        <time>2017-05-29T20:19:15.590Z</time>
      </trkpt>
      <trkpt lat="46.111277" lon="6.115640">
        <ele>689.679823</ele>
        <time>2017-05-29T20:19:29.459Z</time>
      </trkpt>
      <trkpt lat="46.111009" lon="6.115560">
        <ele>689.606989</ele>
        <time>2017-05-29T20:19:35.239Z</time>
      </trkpt>
      <trkpt lat="46.110686" lon="6.115540">
        <ele>689.520951</ele>
        <time>2017-05-29T20:19:42.271Z</time>
      </trkpt>
      <trkpt lat="46.110318" lon="6.115517">
        <ele>689.422925</ele>
        <time>2017-05-29T20:19:50.612Z</time>
      </trkpt>
      <trkpt lat="46.109672" lon="6.115353">
        <ele>689.786829</ele>
        <time>2017-05-29T20:20:06.514Z</time>
      </trkpt>
      <trkpt lat="46.108640" lon="6.115254">
        <ele>690.393379</ele>
        <time>2017-05-29T20:20:32.457Z</time>
      </trkpt>
      <trkpt lat="46.108417" lon="6.115114">
        <ele>690.559351</ele>
        <time>2017-05-29T20:20:38.547Z</time>
      </trkpt>
      <trkpt lat="46.107856" lon="6.114980">
        <ele>691.013041</ele>
        <time>2017-05-29T20:20:52.982Z</time>
      </trkpt>
      <trkpt lat="46.105885" lon="6.114000">
        <ele>692.033353</ele>
        <time>2017-05-29T20:21:46.227Z</time>
      </trkpt>
      <trkpt lat="46.104564" lon="6.113416">
        <ele>690.745682</ele>
        <time>2017-05-29T20:22:14.302Z</time>
      </trkpt>
      <trkpt lat="46.103972" lon="6.113022">
        <ele>689.083935</ele>
        <time>2017-05-29T20:22:25.165Z</time>
      </trkpt>
      <trkpt lat="46.103649" lon="6.112797">
        <ele>688.169702</ele>
        <time>2017-05-29T20:22:30.893Z</time>
      </trkpt>
      <trkpt lat="46.103370" lon="6.112639">
        <ele>687.286648</ele>
        <time>2017-05-29T20:22:35.534Z</time>
      </trkpt>
      <trkpt lat="46.102845" lon="6.112461">
        <ele>684.842335</ele>
        <time>2017-05-29T20:22:43.784Z</time>
      </trkpt>
      <trkpt lat="46.101834" lon="6.112336">
        <ele>680.243389</ele>
        <time>2017-05-29T20:22:59.143Z</time>
      </trkpt>
      <trkpt lat="46.101167" lon="6.112155">
        <ele>677.702885</ele>
        <time>2017-05-29T20:23:09.857Z</time>
      </trkpt>
      <trkpt lat="46.100884" lon="6.111990">
        <ele>676.650256</ele>
        <time>2017-05-29T20:23:14.679Z</time>
      </trkpt>
      <trkpt lat="46.100621" lon="6.111647">
        <ele>675.427489</ele>
        <time>2017-05-29T20:23:20.394Z</time>
      </trkpt>
      <trkpt lat="46.100067" lon="6.111024">
        <ele>673.105837</ele>
        <time>2017-05-29T20:23:32.025Z</time>
      </trkpt>
      <trkpt lat="46.099796" lon="6.110736">
        <ele>672.532245</ele>
        <time>2017-05-29T20:23:37.764Z</time>
      </trkpt>
      <trkpt lat="46.099260" lon="6.110174">
        <ele>671.403079</ele>
        <time>2017-05-29T20:23:49.430Z</time>
      </trkpt>
      <trkpt lat="46.098710" lon="6.109454">
        <ele>670.140123</ele>
        <time>2017-05-29T20:24:03.552Z</time>
      </trkpt>
      <trkpt lat="46.098546" lon="6.109295">
        <ele>670.209030</ele>
        <time>2017-05-29T20:24:07.725Z</time>
      </trkpt>
      <trkpt lat="46.097988" lon="6.108906">
        <ele>670.425142</ele>
        <time>2017-05-29T20:24:21.592Z</time>
      </trkpt>
      <trkpt lat="46.096595" lon="6.107595">
        <ele>671.771162</ele>
        <time>2017-05-29T20:25:04.731Z</time>
      </trkpt>
      <trkpt lat="46.095780" lon="6.106888">
        <ele>673.168746</ele>
        <time>2017-05-29T20:25:32.753Z</time>
      </trkpt>
      <trkpt lat="46.095520" lon="6.106404">
        <ele>673.890145</ele>
        <time>2017-05-29T20:25:45.229Z</time>
      </trkpt>
      <trkpt lat="46.095468" lon="6.106316">
        <ele>674.037977</ele>
        <time>2017-05-29T20:25:48.017Z</time>
      </trkpt>
      <trkpt lat="46.095096" lon="6.105782">
        <ele>675.005813</ele>
        <time>2017-05-29T20:26:03.182Z</time>
      </trkpt>
      <trkpt lat="46.095000" lon="6.105641">
        <ele>675.258475</ele>
        <time>2017-05-29T20:26:07.120Z</time>
      </trkpt>
      <trkpt lat="46.094838" lon="6.105403">
        <ele>675.684900</ele>
        <time>2017-05-29T20:26:14.379Z</time>
      </trkpt>
      <trkpt lat="46.094757" lon="6.105291">
        <ele>675.891820</ele>
        <time>2017-05-29T20:26:17.088Z</time>
      </trkpt>
      <trkpt lat="46.094393" lon="6.104344">
        <ele>677.452343</ele>
        <time>2017-05-29T20:26:39.930Z</time>
      </trkpt>
      <trkpt lat="46.094262" lon="6.104233">
        <ele>677.822187</ele>
        <time>2017-05-29T20:26:44.778Z</time>
      </trkpt>
      <trkpt lat="46.093995" lon="6.104298">
        <ele>678.481293</ele>
        <time>2017-05-29T20:26:52.309Z</time>
      </trkpt>
      <trkpt lat="46.093867" lon="6.104306">
        <ele>678.793152</ele>
        <time>2017-05-29T20:26:57.126Z</time>
      </trkpt>
      <trkpt lat="46.093881" lon="6.104142">
        <ele>679.072075</ele>
        <time>2017-05-29T20:27:00.359Z</time>
      </trkpt>
      <trkpt lat="46.093884" lon="6.103957">
        <ele>679.384442</ele>
        <time>2017-05-29T20:27:03.808Z</time>
      </trkpt>
      <trkpt lat="46.093714" lon="6.103935">
        <ele>679.799905</ele>
        <time>2017-05-29T20:27:10.073Z</time>
      </trkpt>
      <trkpt lat="46.093355" lon="6.103848">
        <ele>680.686008</ele>
        <time>2017-05-29T20:27:21.870Z</time>
      </trkpt>
      <trkpt lat="46.092892" lon="6.103664">
        <ele>682.454700</ele>
        <time>2017-05-29T20:27:38.173Z</time>
      </trkpt>
      <trkpt lat="46.091797" lon="6.103054">
        <ele>687.594872</ele>
        <time>2017-05-29T20:28:26.365Z</time>
      </trkpt>
      <trkpt lat="46.091485" lon="6.102879">
        <ele>689.071450</ele>
        <time>2017-05-29T20:28:40.472Z</time>
      </trkpt>
      <trkpt lat="46.091264" lon="6.102761">
        <ele>690.240255</ele>
        <time>2017-05-29T20:28:50.868Z</time>
      </trkpt>
      <trkpt lat="46.090667" lon="6.102519">
        <ele>693.315918</ele>
        <time>2017-05-29T20:29:17.553Z</time>
      </trkpt>
      <trkpt lat="46.089860" lon="6.102348">
        <ele>697.361310</ele>
        <time>2017-05-29T20:29:52.720Z</time>
      </trkpt>
      <trkpt lat="46.089397" lon="6.102325">
        <ele>699.216839</ele>
        <time>2017-05-29T20:30:10.238Z</time>
      </trkpt>
      <trkpt lat="46.088257" lon="6.102383">
        <ele>703.451533</ele>
        <time>2017-05-29T20:30:52.042Z</time>
      </trkpt>
      <trkpt lat="46.087603" lon="6.102314">
        <ele>705.802014</ele>
        <time>2017-05-29T20:31:14.934Z</time>
      </trkpt>
      <trkpt lat="46.087281" lon="6.102254">
        <ele>706.930026</ele>
        <time>2017-05-29T20:31:26.474Z</time>
      </trkpt>
      <trkpt lat="46.086967" lon="6.102160">
        <ele>708.044206</ele>
        <time>2017-05-29T20:31:38.135Z</time>
      </trkpt>
      <trkpt lat="46.086731" lon="6.102077">
        <ele>708.888168</ele>
        <time>2017-05-29T20:31:46.293Z</time>
      </trkpt>
      <trkpt lat="46.086172" lon="6.101844">
        <ele>710.934742</ele>
        <time>2017-05-29T20:32:07.731Z</time>
      </trkpt>
      <trkpt lat="46.085562" lon="6.101577">
        <ele>713.816687</ele>
        <time>2017-05-29T20:32:33.052Z</time>
      </trkpt>
      <trkpt lat="46.085567" lon="6.101515">
        <ele>714.012399</ele>
        <time>2017-05-29T20:32:34.439Z</time>
      </trkpt>
      <trkpt lat="46.085545" lon="6.101396">
        <ele>714.398555</ele>
        <time>2017-05-29T20:32:38.047Z</time>
      </trkpt>
      <trkpt lat="46.085485" lon="6.101306">
        <ele>714.789975</ele>
        <time>2017-05-29T20:32:41.388Z</time>
      </trkpt>
      <trkpt lat="46.085446" lon="6.101281">
        <ele>714.982926</ele>
        <time>2017-05-29T20:32:42.960Z</time>
      </trkpt>
      <trkpt lat="46.085388" lon="6.101271">
        <ele>715.246998</ele>
        <time>2017-05-29T20:32:45.787Z</time>
      </trkpt>
      <trkpt lat="46.085281" lon="6.101335">
        <ele>715.770694</ele>
        <time>2017-05-29T20:32:50.065Z</time>
      </trkpt>
      <trkpt lat="46.085248" lon="6.101397">
        <ele>716.015743</ele>
        <time>2017-05-29T20:32:52.613Z</time>
      </trkpt>
      <trkpt lat="46.084018" lon="6.100690">
        <ele>722.486084</ele>
        <time>2017-05-29T20:33:48.482Z</time>
      </trkpt>
      <trkpt lat="46.083333" lon="6.100330">
        <ele>726.306469</ele>
        <time>2017-05-29T20:34:20.742Z</time>
      </trkpt>
      <trkpt lat="46.081956" lon="6.099985">
        <ele>733.564410</ele>
        <time>2017-05-29T20:35:21.321Z</time>
      </trkpt>
      <trkpt lat="46.081432" lon="6.099726">
        <ele>736.430741</ele>
        <time>2017-05-29T20:35:45.233Z</time>
      </trkpt>
      <trkpt lat="46.080950" lon="6.099328">
        <ele>739.130124</ele>
        <time>2017-05-29T20:36:08.506Z</time>
      </trkpt>
      <trkpt lat="46.080249" lon="6.098605">
        <ele>743.107309</ele>
        <time>2017-05-29T20:36:43.325Z</time>
      </trkpt>
      <trkpt lat="46.079652" lon="6.097983">
        <ele>746.494482</ele>
        <time>2017-05-29T20:37:12.886Z</time>
      </trkpt>
      <trkpt lat="46.079033" lon="6.097230">
        <ele>750.147304</ele>
        <time>2017-05-29T20:37:45.374Z</time>
      </trkpt>
      <trkpt lat="46.078280" lon="6.096192">
        <ele>754.899790</ele>
        <time>2017-05-29T20:38:27.289Z</time>
      </trkpt>
      <trkpt lat="46.075539" lon="6.092394">
        <ele>774.100204</ele>
        <time>2017-05-29T20:41:06.688Z</time>
      </trkpt>
      <trkpt lat="46.075402" lon="6.092208">
        <ele>775.249386</ele>
        <time>2017-05-29T20:41:16.875Z</time>
      </trkpt>
      <trkpt lat="46.075204" lon="6.091906">
        <ele>777.009598</ele>
        <time>2017-05-29T20:41:31.667Z</time>
      </trkpt>
      <trkpt lat="46.074973" lon="6.091511">
        <ele>779.198062</ele>
        <time>2017-05-29T20:41:49.373Z</time>
      </trkpt>
      <trkpt lat="46.074692" lon="6.090787">
        <ele>782.712333</ele>
        <time>2017-05-29T20:42:15.842Z</time>
      </trkpt>
      <trkpt lat="46.074639" lon="6.090591">
        <ele>783.260790</ele>
        <time>2017-05-29T20:42:23.344Z</time>
      </trkpt>
      <trkpt lat="46.074601" lon="6.090413">
        <ele>783.702161</ele>
        <time>2017-05-29T20:42:29.037Z</time>
      </trkpt>
      <trkpt lat="46.074492" lon="6.089587">
        <ele>785.694828</ele>
        <time>2017-05-29T20:42:51.982Z</time>
      </trkpt>
      <trkpt lat="46.074478" lon="6.088092">
        <ele>789.026540</ele>
        <time>2017-05-29T20:43:24.790Z</time>
      </trkpt>
      <trkpt lat="46.074507" lon="6.086861">
        <ele>789.639674</ele>
        <time>2017-05-29T20:43:45.017Z</time>
      </trkpt>
      <trkpt lat="46.074505" lon="6.086060">
        <ele>790.038407</ele>
        <time>2017-05-29T20:43:58.463Z</time>
      </trkpt>
      <trkpt lat="46.074481" lon="6.085435">
        <ele>790.260903</ele>
        <time>2017-05-29T20:44:09.085Z</time>
      </trkpt>
      <trkpt lat="46.074459" lon="6.085212">
        <ele>790.260903</ele>
        <time>2017-05-29T20:44:12.701Z</time>
      </trkpt>
      <trkpt lat="46.074347" lon="6.085230">
        <ele>790.260903</ele>
        <time>2017-05-29T20:44:15.694Z</time>
      </trkpt>
      <trkpt lat="46.074288" lon="6.085205">
        <ele>790.260903</ele>
        <time>2017-05-29T20:44:17.350Z</time>
      </trkpt>
      <trkpt lat="46.074013" lon="6.084713">
        <ele>790.260903</ele>
        <time>2017-05-29T20:44:28.708Z</time>
      </trkpt>
      <trkpt lat="46.073932" lon="6.084682">
        <ele>790.260903</ele>
        <time>2017-05-29T20:44:30.775Z</time>
      </trkpt>
      <trkpt lat="46.073764" lon="6.084711">
        <ele>790.260903</ele>
        <time>2017-05-29T20:44:35.164Z</time>
      </trkpt>
      <trkpt lat="46.073732" lon="6.084744">
        <ele>790.260903</ele>
        <time>2017-05-29T20:44:36.353Z</time>
      </trkpt>
    </trkseg>
  </trk>
</gpx>